<?xml version="1.0" encoding="UTF-8" standalone="no" ?>
<gpx xmlns="http://www.topografix.com/GPX/1/1" creator="MapSource 6.16.2" version="1.1" xmlns:xsi="http://www.w3.org/2001/XMLSchema-instance" xsi:schemaLocation="http://www.topografix.com/GPX/1/1 http://www.topografix.com/GPX/1/1/gpx.xsd">

  <metadata>
    <link href="http://www.garmin.com">
      <text>Garmin International</text>
    </link>
    <time>2010-09-06T14:38:01Z</time>
    <bounds maxlat="46.444337032735348" maxlon="8.136955965310335" minlat="46.398361036553979" minlon="8.05665398016572"/>
  </metadata>

  <trk>
    <name>05.09.10.gpx created from 2010-09-05T08:09:03Z to 2010-09-05T15:03:54Z</name>
    <extensions>
      <gpxx:TrackExtension xmlns:gpxx="http://www.garmin.com/xmlschemas/GpxExtensions/v3">
        <gpxx:DisplayColor>Yellow</gpxx:DisplayColor>
      </gpxx:TrackExtension>
    </extensions>
    <trkseg>
      <trkpt lat="46.405337965115905" lon="8.13623302616179">
        <ele>1057</ele>
        <time>2010-09-05T08:09:03Z</time>
      </trkpt>
      <trkpt lat="46.405104026198387" lon="8.136197989806533">
        <ele>1058</ele>
        <time>2010-09-05T08:09:34Z</time>
      </trkpt>
      <trkpt lat="46.404860028997064" lon="8.1360839959234">
        <ele>1061</ele>
        <time>2010-09-05T08:09:58Z</time>
      </trkpt>
      <trkpt lat="46.404617037624121" lon="8.136114003136754">
        <ele>1063</ele>
        <time>2010-09-05T08:10:23Z</time>
      </trkpt>
      <trkpt lat="46.404790040105581" lon="8.136346014216542">
        <ele>1067</ele>
        <time>2010-09-05T08:10:56Z</time>
      </trkpt>
      <trkpt lat="46.404927000403404" lon="8.136617001146078">
        <ele>1068</ele>
        <time>2010-09-05T08:11:24Z</time>
      </trkpt>
      <trkpt lat="46.404893975704908" lon="8.136955965310335">
        <ele>1068</ele>
        <time>2010-09-05T08:13:11Z</time>
      </trkpt>
      <trkpt lat="46.40480998903513" lon="8.136619012802839">
        <ele>1068</ele>
        <time>2010-09-05T08:13:24Z</time>
      </trkpt>
      <trkpt lat="46.405150964856148" lon="8.136418014764786">
        <ele>1069</ele>
        <time>2010-09-05T08:14:59Z</time>
      </trkpt>
      <trkpt lat="46.405189018696547" lon="8.136782040819526">
        <ele>1069</ele>
        <time>2010-09-05T08:15:23Z</time>
      </trkpt>
      <trkpt lat="46.404979974031448" lon="8.136485991999507">
        <ele>1071</ele>
        <time>2010-09-05T08:34:23Z</time>
      </trkpt>
      <trkpt lat="46.405176026746631" lon="8.136195978149772">
        <ele>1078</ele>
        <time>2010-09-05T08:35:17Z</time>
      </trkpt>
      <trkpt lat="46.405263030901551" lon="8.135831030085683">
        <ele>1083</ele>
        <time>2010-09-05T08:35:23Z</time>
      </trkpt>
      <trkpt lat="46.405351040884852" lon="8.135490976274014">
        <ele>1088</ele>
        <time>2010-09-05T08:35:27Z</time>
      </trkpt>
      <trkpt lat="46.405491018667817" lon="8.135008011013269">
        <ele>1096</ele>
        <time>2010-09-05T08:35:32Z</time>
      </trkpt>
      <trkpt lat="46.405579028651118" lon="8.134681032970548">
        <ele>1103</ele>
        <time>2010-09-05T08:35:35Z</time>
      </trkpt>
      <trkpt lat="46.405656980350614" lon="8.134340979158878">
        <ele>1107</ele>
        <time>2010-09-05T08:35:38Z</time>
      </trkpt>
      <trkpt lat="46.405744990333915" lon="8.134027998894453">
        <ele>1115</ele>
        <time>2010-09-05T08:35:41Z</time>
      </trkpt>
      <trkpt lat="46.405840963125229" lon="8.1336750369519">
        <ele>1122</ele>
        <time>2010-09-05T08:35:44Z</time>
      </trkpt>
      <trkpt lat="46.40592897310853" lon="8.133360967040062">
        <ele>1129</ele>
        <time>2010-09-05T08:35:47Z</time>
      </trkpt>
      <trkpt lat="46.406059982255101" lon="8.132852017879486">
        <ele>1140</ele>
        <time>2010-09-05T08:35:52Z</time>
      </trkpt>
      <trkpt lat="46.406156038865447" lon="8.132434012368321">
        <ele>1147</ele>
        <time>2010-09-05T08:35:56Z</time>
      </trkpt>
      <trkpt lat="46.406260980293155" lon="8.132028998807073">
        <ele>1158</ele>
        <time>2010-09-05T08:36:00Z</time>
      </trkpt>
      <trkpt lat="46.406347984448075" lon="8.131716018542647">
        <ele>1167</ele>
        <time>2010-09-05T08:36:03Z</time>
      </trkpt>
      <trkpt lat="46.406444041058421" lon="8.131362972781062">
        <ele>1176</ele>
        <time>2010-09-05T08:36:07Z</time>
      </trkpt>
      <trkpt lat="46.406522998586297" lon="8.131048986688256">
        <ele>1184</ele>
        <time>2010-09-05T08:36:11Z</time>
      </trkpt>
      <trkpt lat="46.406610002741218" lon="8.13067096285522">
        <ele>1195</ele>
        <time>2010-09-05T08:36:15Z</time>
      </trkpt>
      <trkpt lat="46.406705975532532" lon="8.130279025062919">
        <ele>1195</ele>
        <time>2010-09-05T08:36:19Z</time>
      </trkpt>
      <trkpt lat="46.406811000779271" lon="8.12987401150167">
        <ele>1195</ele>
        <time>2010-09-05T08:36:23Z</time>
      </trkpt>
      <trkpt lat="46.406906973570585" lon="8.129494981840253">
        <ele>1234</ele>
        <time>2010-09-05T08:36:27Z</time>
      </trkpt>
      <trkpt lat="46.406993977725506" lon="8.12910296022892">
        <ele>1242</ele>
        <time>2010-09-05T08:36:31Z</time>
      </trkpt>
      <trkpt lat="46.407090034335852" lon="8.128724014386535">
        <ele>1257</ele>
        <time>2010-09-05T08:36:35Z</time>
      </trkpt>
      <trkpt lat="46.407186007127166" lon="8.128345990553498">
        <ele>1269</ele>
        <time>2010-09-05T08:36:39Z</time>
      </trkpt>
      <trkpt lat="46.40728197991848" lon="8.127953968942165">
        <ele>1282</ele>
        <time>2010-09-05T08:36:43Z</time>
      </trkpt>
      <trkpt lat="46.407378958538175" lon="8.12757502309978">
        <ele>1295</ele>
        <time>2010-09-05T08:36:47Z</time>
      </trkpt>
      <trkpt lat="46.407499993219972" lon="8.127027014270425">
        <ele>1315</ele>
        <time>2010-09-05T08:36:53Z</time>
      </trkpt>
      <trkpt lat="46.407579034566879" lon="8.126660976558924">
        <ele>1331</ele>
        <time>2010-09-05T08:36:57Z</time>
      </trkpt>
      <trkpt lat="46.4076660387218" lon="8.12630801461637">
        <ele>1343</ele>
        <time>2010-09-05T08:37:01Z</time>
      </trkpt>
      <trkpt lat="46.40775203704834" lon="8.125865031033754">
        <ele>1360</ele>
        <time>2010-09-05T08:37:05Z</time>
      </trkpt>
      <trkpt lat="46.407849015668035" lon="8.125498993322253">
        <ele>1360</ele>
        <time>2010-09-05T08:37:10Z</time>
      </trkpt>
      <trkpt lat="46.407953035086393" lon="8.125055003911257">
        <ele>1360</ele>
        <time>2010-09-05T08:37:15Z</time>
      </trkpt>
      <trkpt lat="46.408031992614269" lon="8.124728025868535">
        <ele>1413</ele>
        <time>2010-09-05T08:37:19Z</time>
      </trkpt>
      <trkpt lat="46.40811899676919" lon="8.124362993985415">
        <ele>1427</ele>
        <time>2010-09-05T08:37:24Z</time>
      </trkpt>
      <trkpt lat="46.40820600092411" lon="8.124023023992777">
        <ele>1445</ele>
        <time>2010-09-05T08:37:28Z</time>
      </trkpt>
      <trkpt lat="46.408301973715425" lon="8.123605018481612">
        <ele>1458</ele>
        <time>2010-09-05T08:37:32Z</time>
      </trkpt>
      <trkpt lat="46.408388977870345" lon="8.123251972720027">
        <ele>1458</ele>
        <time>2010-09-05T08:37:37Z</time>
      </trkpt>
      <trkpt lat="46.408502971753478" lon="8.122807983309031">
        <ele>1504</ele>
        <time>2010-09-05T08:37:42Z</time>
      </trkpt>
      <trkpt lat="46.408581007272005" lon="8.122469019144774">
        <ele>1515</ele>
        <time>2010-09-05T08:37:46Z</time>
      </trkpt>
      <trkpt lat="46.408669017255306" lon="8.122142041102052">
        <ele>1515</ele>
        <time>2010-09-05T08:37:50Z</time>
      </trkpt>
      <trkpt lat="46.40876499004662" lon="8.121750019490719">
        <ele>1515</ele>
        <time>2010-09-05T08:37:55Z</time>
      </trkpt>
      <trkpt lat="46.408851994201541" lon="8.121383981779218">
        <ele>1557</ele>
        <time>2010-09-05T08:37:58Z</time>
      </trkpt>
      <trkpt lat="46.40895701944828" lon="8.120965976268053">
        <ele>1566</ele>
        <time>2010-09-05T08:38:03Z</time>
      </trkpt>
      <trkpt lat="46.409052992239594" lon="8.120574960485101">
        <ele>1576</ele>
        <time>2010-09-05T08:38:07Z</time>
      </trkpt>
      <trkpt lat="46.409139996394515" lon="8.120170030742884">
        <ele>1586</ele>
        <time>2010-09-05T08:38:11Z</time>
      </trkpt>
      <trkpt lat="46.409227000549436" lon="8.119778009131551">
        <ele>1596</ele>
        <time>2010-09-05T08:38:15Z</time>
      </trkpt>
      <trkpt lat="46.409332025796175" lon="8.119385987520218">
        <ele>1607</ele>
        <time>2010-09-05T08:38:19Z</time>
      </trkpt>
      <trkpt lat="46.409427998587489" lon="8.118993965908885">
        <ele>1618</ele>
        <time>2010-09-05T08:38:23Z</time>
      </trkpt>
      <trkpt lat="46.409506034106016" lon="8.118642009794712">
        <ele>1625</ele>
        <time>2010-09-05T08:38:27Z</time>
      </trkpt>
      <trkpt lat="46.40960200689733" lon="8.118262980133295">
        <ele>1625</ele>
        <time>2010-09-05T08:38:32Z</time>
      </trkpt>
      <trkpt lat="46.409689011052251" lon="8.11788403429091">
        <ele>1625</ele>
        <time>2010-09-05T08:38:36Z</time>
      </trkpt>
      <trkpt lat="46.409776015207171" lon="8.117506010457873">
        <ele>1667</ele>
        <time>2010-09-05T08:38:40Z</time>
      </trkpt>
      <trkpt lat="46.409871987998486" lon="8.117113988846541">
        <ele>1678</ele>
        <time>2010-09-05T08:38:44Z</time>
      </trkpt>
      <trkpt lat="46.409985981881618" lon="8.116656001657248">
        <ele>1696</ele>
        <time>2010-09-05T08:38:49Z</time>
      </trkpt>
      <trkpt lat="46.410072986036539" lon="8.116303961724043">
        <ele>1709</ele>
        <time>2010-09-05T08:38:53Z</time>
      </trkpt>
      <trkpt lat="46.41015999019146" lon="8.115950999781489">
        <ele>1712</ele>
        <time>2010-09-05T08:38:57Z</time>
      </trkpt>
      <trkpt lat="46.410255962982774" lon="8.115545986220241">
        <ele>1712</ele>
        <time>2010-09-05T08:39:02Z</time>
      </trkpt>
      <trkpt lat="46.410369034856558" lon="8.115063020959497">
        <ele>1746</ele>
        <time>2010-09-05T08:39:06Z</time>
      </trkpt>
      <trkpt lat="46.410447992384434" lon="8.114749034866691">
        <ele>1751</ele>
        <time>2010-09-05T08:39:10Z</time>
      </trkpt>
      <trkpt lat="46.410516975447536" lon="8.114435970783234">
        <ele>1757</ele>
        <time>2010-09-05T08:39:13Z</time>
      </trkpt>
      <trkpt lat="46.410639015957713" lon="8.113914029672742">
        <ele>1765</ele>
        <time>2010-09-05T08:39:18Z</time>
      </trkpt>
      <trkpt lat="46.410734988749027" lon="8.113509016111493">
        <ele>1772</ele>
        <time>2010-09-05T08:39:22Z</time>
      </trkpt>
      <trkpt lat="46.410821992903948" lon="8.113104002550244">
        <ele>1782</ele>
        <time>2010-09-05T08:39:26Z</time>
      </trkpt>
      <trkpt lat="46.410927018150687" lon="8.112711980938911">
        <ele>1790</ele>
        <time>2010-09-05T08:39:30Z</time>
      </trkpt>
      <trkpt lat="46.411048974841833" lon="8.112202025949955">
        <ele>1802</ele>
        <time>2010-09-05T08:39:35Z</time>
      </trkpt>
      <trkpt lat="46.411135978996754" lon="8.111811010167003">
        <ele>1811</ele>
        <time>2010-09-05T08:39:39Z</time>
      </trkpt>
      <trkpt lat="46.411248967051506" lon="8.111327039077878">
        <ele>1824</ele>
        <time>2010-09-05T08:39:44Z</time>
      </trkpt>
      <trkpt lat="46.41136203892529" lon="8.110843989998102">
        <ele>1836</ele>
        <time>2010-09-05T08:39:49Z</time>
      </trkpt>
      <trkpt lat="46.41144996508956" lon="8.110465966165066">
        <ele>1848</ele>
        <time>2010-09-05T08:39:53Z</time>
      </trkpt>
      <trkpt lat="46.41153696924448" lon="8.110087020322681">
        <ele>1858</ele>
        <time>2010-09-05T08:39:57Z</time>
      </trkpt>
      <trkpt lat="46.411632020026445" lon="8.109630038961768">
        <ele>1872</ele>
        <time>2010-09-05T08:40:02Z</time>
      </trkpt>
      <trkpt lat="46.41172799281776" lon="8.109238017350435">
        <ele>1883</ele>
        <time>2010-09-05T08:40:06Z</time>
      </trkpt>
      <trkpt lat="46.411823965609074" lon="8.108871979638934">
        <ele>1897</ele>
        <time>2010-09-05T08:40:10Z</time>
      </trkpt>
      <trkpt lat="46.411894038319588" lon="8.108546007424593">
        <ele>1906</ele>
        <time>2010-09-05T08:40:14Z</time>
      </trkpt>
      <trkpt lat="46.412015995010734" lon="8.108062036335468">
        <ele>1913</ele>
        <time>2010-09-05T08:40:18Z</time>
      </trkpt>
      <trkpt lat="46.412094030529261" lon="8.107748972252011">
        <ele>1919</ele>
        <time>2010-09-05T08:40:22Z</time>
      </trkpt>
      <trkpt lat="46.412190003320575" lon="8.107343958690763">
        <ele>1925</ele>
        <time>2010-09-05T08:40:26Z</time>
      </trkpt>
      <trkpt lat="46.412295028567314" lon="8.10692603699863">
        <ele>1934</ele>
        <time>2010-09-05T08:40:30Z</time>
      </trkpt>
      <trkpt lat="46.412426037713885" lon="8.106415998190641">
        <ele>1943</ele>
        <time>2010-09-05T08:40:35Z</time>
      </trkpt>
      <trkpt lat="46.412513041868806" lon="8.106010984629393">
        <ele>1951</ele>
        <time>2010-09-05T08:40:39Z</time>
      </trkpt>
      <trkpt lat="46.41260901466012" lon="8.105592979118228">
        <ele>1960</ele>
        <time>2010-09-05T08:40:43Z</time>
      </trkpt>
      <trkpt lat="46.412703981623054" lon="8.105201041325927">
        <ele>1969</ele>
        <time>2010-09-05T08:40:47Z</time>
      </trkpt>
      <trkpt lat="46.412800960242748" lon="8.10482201166451">
        <ele>1979</ele>
        <time>2010-09-05T08:40:51Z</time>
      </trkpt>
      <trkpt lat="46.412886958569288" lon="8.104430995881558">
        <ele>1991</ele>
        <time>2010-09-05T08:40:56Z</time>
      </trkpt>
      <trkpt lat="46.412983015179634" lon="8.104025982320309">
        <ele>2003</ele>
        <time>2010-09-05T08:41:03Z</time>
      </trkpt>
      <trkpt lat="46.413071025162935" lon="8.103711996227503">
        <ele>2013</ele>
        <time>2010-09-05T08:41:14Z</time>
      </trkpt>
      <trkpt lat="46.413910975679755" lon="8.10299601405859">
        <ele>2023</ele>
        <time>2010-09-05T08:45:26Z</time>
      </trkpt>
      <trkpt lat="46.414727037772536" lon="8.102592006325722">
        <ele>2023</ele>
        <time>2010-09-05T08:45:27Z</time>
      </trkpt>
      <trkpt lat="46.414162013679743" lon="8.102860981598496">
        <ele>2023</ele>
        <time>2010-09-05T08:45:29Z</time>
      </trkpt>
      <trkpt lat="46.413065996021032" lon="8.103048987686634">
        <ele>2024</ele>
        <time>2010-09-05T08:46:07Z</time>
      </trkpt>
      <trkpt lat="46.413284009322524" lon="8.103291979059577">
        <ele>2019</ele>
        <time>2010-09-05T08:50:39Z</time>
      </trkpt>
      <trkpt lat="46.413482995703816" lon="8.103497000411153">
        <ele>2018</ele>
        <time>2010-09-05T08:50:44Z</time>
      </trkpt>
      <trkpt lat="46.413708971813321" lon="8.103584004566073">
        <ele>2015</ele>
        <time>2010-09-05T08:50:50Z</time>
      </trkpt>
      <trkpt lat="46.41394299454987" lon="8.103580987080932">
        <ele>2015</ele>
        <time>2010-09-05T08:50:57Z</time>
      </trkpt>
      <trkpt lat="46.414142986759543" lon="8.103850968182087">
        <ele>2014</ele>
        <time>2010-09-05T08:51:08Z</time>
      </trkpt>
      <trkpt lat="46.414281036704779" lon="8.10419999063015">
        <ele>2012</ele>
        <time>2010-09-05T08:51:14Z</time>
      </trkpt>
      <trkpt lat="46.414409028366208" lon="8.104523029178381">
        <ele>2012</ele>
        <time>2010-09-05T08:51:18Z</time>
      </trkpt>
      <trkpt lat="46.414555963128805" lon="8.104858975857496">
        <ele>2012</ele>
        <time>2010-09-05T08:51:24Z</time>
      </trkpt>
      <trkpt lat="46.41469300724566" lon="8.10514303855598">
        <ele>2014</ele>
        <time>2010-09-05T08:51:32Z</time>
      </trkpt>
      <trkpt lat="46.414803983643651" lon="8.105453001335263">
        <ele>2015</ele>
        <time>2010-09-05T08:51:41Z</time>
      </trkpt>
      <trkpt lat="46.414923006668687" lon="8.105737986043096">
        <ele>2018</ele>
        <time>2010-09-05T08:51:50Z</time>
      </trkpt>
      <trkpt lat="46.415024008601904" lon="8.106061024591327">
        <ele>2018</ele>
        <time>2010-09-05T08:51:59Z</time>
      </trkpt>
      <trkpt lat="46.415133979171515" lon="8.106359001249075">
        <ele>2020</ele>
        <time>2010-09-05T08:52:08Z</time>
      </trkpt>
      <trkpt lat="46.415254008024931" lon="8.106682039797306">
        <ele>2021</ele>
        <time>2010-09-05T08:52:18Z</time>
      </trkpt>
      <trkpt lat="46.415374036878347" lon="8.107043970376253">
        <ele>2022</ele>
        <time>2010-09-05T08:52:28Z</time>
      </trkpt>
      <trkpt lat="46.41551099717617" lon="8.107329038903117">
        <ele>2020</ele>
        <time>2010-09-05T08:52:37Z</time>
      </trkpt>
      <trkpt lat="46.415683999657631" lon="8.107559960335493">
        <ele>2020</ele>
        <time>2010-09-05T08:52:44Z</time>
      </trkpt>
      <trkpt lat="46.415902012959123" lon="8.107776967808604">
        <ele>2017</ele>
        <time>2010-09-05T08:52:50Z</time>
      </trkpt>
      <trkpt lat="46.416100999340415" lon="8.107944019138813">
        <ele>2016</ele>
        <time>2010-09-05T08:52:55Z</time>
      </trkpt>
      <trkpt lat="46.41632697544992" lon="8.108121966943145">
        <ele>2014</ele>
        <time>2010-09-05T08:53:01Z</time>
      </trkpt>
      <trkpt lat="46.416544988751411" lon="8.108326988294721">
        <ele>2014</ele>
        <time>2010-09-05T08:53:07Z</time>
      </trkpt>
      <trkpt lat="46.41679703257978" lon="8.108401000499725">
        <ele>2012</ele>
        <time>2010-09-05T08:53:42Z</time>
      </trkpt>
      <trkpt lat="46.417042035609484" lon="8.10853997245431">
        <ele>2012</ele>
        <time>2010-09-05T08:53:47Z</time>
      </trkpt>
      <trkpt lat="46.417302964255214" lon="8.108613984659314">
        <ele>2010</ele>
        <time>2010-09-05T08:53:52Z</time>
      </trkpt>
      <trkpt lat="46.417574035003781" lon="8.108699982985854">
        <ele>2011</ele>
        <time>2010-09-05T08:53:57Z</time>
      </trkpt>
      <trkpt lat="46.417763968929648" lon="8.108892012387514">
        <ele>2010</ele>
        <time>2010-09-05T08:54:01Z</time>
      </trkpt>
      <trkpt lat="46.418018024414778" lon="8.109069960191846">
        <ele>2009</ele>
        <time>2010-09-05T08:54:05Z</time>
      </trkpt>
      <trkpt lat="46.418289011344314" lon="8.109222007915378">
        <ele>2008</ele>
        <time>2010-09-05T08:54:09Z</time>
      </trkpt>
      <trkpt lat="46.418507024645805" lon="8.109478997066617">
        <ele>2007</ele>
        <time>2010-09-05T08:54:13Z</time>
      </trkpt>
      <trkpt lat="46.418742975220084" lon="8.10972198843956">
        <ele>2007</ele>
        <time>2010-09-05T08:54:17Z</time>
      </trkpt>
      <trkpt lat="46.419042041525245" lon="8.109964979812503">
        <ele>2005</ele>
        <time>2010-09-05T08:54:22Z</time>
      </trkpt>
      <trkpt lat="46.419258965179324" lon="8.110181987285614">
        <ele>2005</ele>
        <time>2010-09-05T08:54:26Z</time>
      </trkpt>
      <trkpt lat="46.419511009007692" lon="8.110191039741039">
        <ele>2003</ele>
        <time>2010-09-05T08:54:31Z</time>
      </trkpt>
      <trkpt lat="46.419834969565272" lon="8.110107975080609">
        <ele>2003</ele>
        <time>2010-09-05T08:54:37Z</time>
      </trkpt>
      <trkpt lat="46.420068992301822" lon="8.110130019485951">
        <ele>2002</ele>
        <time>2010-09-05T08:54:41Z</time>
      </trkpt>
      <trkpt lat="46.420304020866752" lon="8.110268991440535">
        <ele>2000</ele>
        <time>2010-09-05T08:54:47Z</time>
      </trkpt>
      <trkpt lat="46.42049403861165" lon="8.110461020842195">
        <ele>1999</ele>
        <time>2010-09-05T08:54:51Z</time>
      </trkpt>
      <trkpt lat="46.420684978365898" lon="8.110640980303288">
        <ele>1997</ele>
        <time>2010-09-05T08:54:54Z</time>
      </trkpt>
      <trkpt lat="46.420909026637673" lon="8.110584989190102">
        <ele>1997</ele>
        <time>2010-09-05T08:54:59Z</time>
      </trkpt>
      <trkpt lat="46.421179007738829" lon="8.110502008348703">
        <ele>2001</ele>
        <time>2010-09-05T08:55:09Z</time>
      </trkpt>
      <trkpt lat="46.421404983848333" lon="8.110616002231836">
        <ele>2004</ele>
        <time>2010-09-05T08:55:24Z</time>
      </trkpt>
      <trkpt lat="46.421630037948489" lon="8.110703006386757">
        <ele>2006</ele>
        <time>2010-09-05T08:55:37Z</time>
      </trkpt>
      <trkpt lat="46.421873029321432" lon="8.110698983073235">
        <ele>2008</ele>
        <time>2010-09-05T08:55:53Z</time>
      </trkpt>
      <trkpt lat="46.422097999602556" lon="8.110592029988766">
        <ele>2012</ele>
        <time>2010-09-05T08:56:09Z</time>
      </trkpt>
      <trkpt lat="46.422311989590526" lon="8.110406035557389">
        <ele>2012</ele>
        <time>2010-09-05T08:56:22Z</time>
      </trkpt>
      <trkpt lat="46.422490021213889" lon="8.110168995335698">
        <ele>2013</ele>
        <time>2010-09-05T08:56:35Z</time>
      </trkpt>
      <trkpt lat="46.42268599011004" lon="8.109931033104658">
        <ele>2014</ele>
        <time>2010-09-05T08:56:47Z</time>
      </trkpt>
      <trkpt lat="46.422910038381815" lon="8.109797006472945">
        <ele>2015</ele>
        <time>2010-09-05T08:56:59Z</time>
      </trkpt>
      <trkpt lat="46.423125034198165" lon="8.109663985669613">
        <ele>2017</ele>
        <time>2010-09-05T08:57:13Z</time>
      </trkpt>
      <trkpt lat="46.423284960910678" lon="8.109427029266954">
        <ele>2019</ele>
        <time>2010-09-05T08:57:29Z</time>
      </trkpt>
      <trkpt lat="46.423537004739046" lon="8.109397022053599">
        <ele>2022</ele>
        <time>2010-09-05T08:57:46Z</time>
      </trkpt>
      <trkpt lat="46.42376197502017" lon="8.109405990689993">
        <ele>2023</ele>
        <time>2010-09-05T08:58:03Z</time>
      </trkpt>
      <trkpt lat="46.423971019685268" lon="8.109585028141737">
        <ele>2025</ele>
        <time>2010-09-05T08:58:18Z</time>
      </trkpt>
      <trkpt lat="46.424204958602786" lon="8.109645964577794">
        <ele>2026</ele>
        <time>2010-09-05T08:58:32Z</time>
      </trkpt>
      <trkpt lat="46.424342002719641" lon="8.109943019226193">
        <ele>2028</ele>
        <time>2010-09-05T08:58:47Z</time>
      </trkpt>
      <trkpt lat="46.424444010481238" lon="8.110240995883942">
        <ele>2030</ele>
        <time>2010-09-05T08:59:01Z</time>
      </trkpt>
      <trkpt lat="46.42466101795435" lon="8.110367981716991">
        <ele>2031</ele>
        <time>2010-09-05T08:59:14Z</time>
      </trkpt>
      <trkpt lat="46.424823962152004" lon="8.110598986968398">
        <ele>2032</ele>
        <time>2010-09-05T08:59:32Z</time>
      </trkpt>
      <trkpt lat="46.424943991005421" lon="8.110910039395094">
        <ele>2035</ele>
        <time>2010-09-05T08:59:52Z</time>
      </trkpt>
      <trkpt lat="46.425098972395062" lon="8.111167028546333">
        <ele>2038</ele>
        <time>2010-09-05T09:00:12Z</time>
      </trkpt>
      <trkpt lat="46.425254037603736" lon="8.111425023525953">
        <ele>2041</ele>
        <time>2010-09-05T09:00:36Z</time>
      </trkpt>
      <trkpt lat="46.425409018993378" lon="8.111683018505573">
        <ele>2043</ele>
        <time>2010-09-05T09:00:59Z</time>
      </trkpt>
      <trkpt lat="46.425537010654807" lon="8.111979989334941">
        <ele>2046</ele>
        <time>2010-09-05T09:01:22Z</time>
      </trkpt>
      <trkpt lat="46.425718981772661" lon="8.112186016514897">
        <ele>2049</ele>
        <time>2010-09-05T09:01:44Z</time>
      </trkpt>
      <trkpt lat="46.425935989245772" lon="8.11229900456965">
        <ele>2051</ele>
        <time>2010-09-05T09:02:04Z</time>
      </trkpt>
      <trkpt lat="46.426170011982322" lon="8.112373016774654">
        <ele>2052</ele>
        <time>2010-09-05T09:02:22Z</time>
      </trkpt>
      <trkpt lat="46.426395988091826" lon="8.112461026757956">
        <ele>2054</ele>
        <time>2010-09-05T09:02:38Z</time>
      </trkpt>
      <trkpt lat="46.426604026928544" lon="8.11260100454092">
        <ele>2057</ele>
        <time>2010-09-05T09:02:59Z</time>
      </trkpt>
      <trkpt lat="46.42681198194623" lon="8.112779036164284">
        <ele>2059</ele>
        <time>2010-09-05T09:03:21Z</time>
      </trkpt>
      <trkpt lat="46.427003005519509" lon="8.112958995625377">
        <ele>2060</ele>
        <time>2010-09-05T09:03:41Z</time>
      </trkpt>
      <trkpt lat="46.427193023264408" lon="8.113164016976953">
        <ele>2062</ele>
        <time>2010-09-05T09:04:00Z</time>
      </trkpt>
      <trkpt lat="46.427330989390612" lon="8.11346098780632">
        <ele>2064</ele>
        <time>2010-09-05T09:04:18Z</time>
      </trkpt>
      <trkpt lat="46.427386980503798" lon="8.113785032182932">
        <ele>2066</ele>
        <time>2010-09-05T09:04:35Z</time>
      </trkpt>
      <trkpt lat="46.427453029900789" lon="8.114121984690428">
        <ele>2069</ele>
        <time>2010-09-05T09:04:55Z</time>
      </trkpt>
      <trkpt lat="46.42750097438693" lon="8.114473018795252">
        <ele>2072</ele>
        <time>2010-09-05T09:05:16Z</time>
      </trkpt>
      <trkpt lat="46.427638018503785" lon="8.11476998962462">
        <ele>2074</ele>
        <time>2010-09-05T09:05:37Z</time>
      </trkpt>
      <trkpt lat="46.427854020148516" lon="8.114870991557837">
        <ele>2074</ele>
        <time>2010-09-05T09:07:44Z</time>
      </trkpt>
      <trkpt lat="46.428106985986233" lon="8.114970987662673">
        <ele>2077</ele>
        <time>2010-09-05T09:08:00Z</time>
      </trkpt>
      <trkpt lat="46.428350983187556" lon="8.115044999867678">
        <ele>2078</ele>
        <time>2010-09-05T09:08:20Z</time>
      </trkpt>
      <trkpt lat="46.428566984832287" lon="8.115107025951147">
        <ele>2082</ele>
        <time>2010-09-05T09:08:40Z</time>
      </trkpt>
      <trkpt lat="46.428792960941792" lon="8.115233005955815">
        <ele>2084</ele>
        <time>2010-09-05T09:09:02Z</time>
      </trkpt>
      <trkpt lat="46.429036958143115" lon="8.115281034260988">
        <ele>2085</ele>
        <time>2010-09-05T09:09:24Z</time>
      </trkpt>
      <trkpt lat="46.429244996979833" lon="8.115446995943785">
        <ele>2088</ele>
        <time>2010-09-05T09:09:46Z</time>
      </trkpt>
      <trkpt lat="46.429462004452944" lon="8.115586973726749">
        <ele>2091</ele>
        <time>2010-09-05T09:10:08Z</time>
      </trkpt>
      <trkpt lat="46.429687980562449" lon="8.115726029500365">
        <ele>2093</ele>
        <time>2010-09-05T09:10:28Z</time>
      </trkpt>
      <trkpt lat="46.429914040490985" lon="8.115840023383498">
        <ele>2096</ele>
        <time>2010-09-05T09:10:49Z</time>
      </trkpt>
      <trkpt lat="46.430096011608839" lon="8.116044960916042">
        <ele>2097</ele>
        <time>2010-09-05T09:11:10Z</time>
      </trkpt>
      <trkpt lat="46.430321987718344" lon="8.116198014467955">
        <ele>2098</ele>
        <time>2010-09-05T09:11:29Z</time>
      </trkpt>
      <trkpt lat="46.4305470418185" lon="8.116298010572791">
        <ele>2100</ele>
        <time>2010-09-05T09:11:46Z</time>
      </trkpt>
      <trkpt lat="46.430762959644198" lon="8.116151997819543">
        <ele>2103</ele>
        <time>2010-09-05T09:12:06Z</time>
      </trkpt>
      <trkpt lat="46.430572019889951" lon="8.11597203835845">
        <ele>2106</ele>
        <time>2010-09-05T09:12:44Z</time>
      </trkpt>
      <trkpt lat="46.430337997153401" lon="8.115937002003193">
        <ele>2108</ele>
        <time>2010-09-05T09:12:59Z</time>
      </trkpt>
      <trkpt lat="46.430164994671941" lon="8.115705996751785">
        <ele>2109</ele>
        <time>2010-09-05T09:13:15Z</time>
      </trkpt>
      <trkpt lat="46.430037003010511" lon="8.115408020094037">
        <ele>2112</ele>
        <time>2010-09-05T09:13:32Z</time>
      </trkpt>
      <trkpt lat="46.430271025747061" lon="8.115469962358475">
        <ele>2114</ele>
        <time>2010-09-05T09:13:51Z</time>
      </trkpt>
      <trkpt lat="46.430503958836198" lon="8.115362003445625">
        <ele>2115</ele>
        <time>2010-09-05T09:14:07Z</time>
      </trkpt>
      <trkpt lat="46.430556010454893" lon="8.115023039281368">
        <ele>2117</ele>
        <time>2010-09-05T09:14:21Z</time>
      </trkpt>
      <trkpt lat="46.430551987141371" lon="8.114606039598584">
        <ele>2114</ele>
        <time>2010-09-05T09:14:27Z</time>
      </trkpt>
      <trkpt lat="46.430575959384441" lon="8.114149980247021">
        <ele>2112</ele>
        <time>2010-09-05T09:14:30Z</time>
      </trkpt>
      <trkpt lat="46.430600015446544" lon="8.113758964464068">
        <ele>2109</ele>
        <time>2010-09-05T09:14:33Z</time>
      </trkpt>
      <trkpt lat="46.43063304014504" lon="8.113368032500148">
        <ele>2110</ele>
        <time>2010-09-05T09:14:37Z</time>
      </trkpt>
      <trkpt lat="46.430718032643199" lon="8.112794039770961">
        <ele>2108</ele>
        <time>2010-09-05T09:14:41Z</time>
      </trkpt>
      <trkpt lat="46.430823979899287" lon="8.112440994009376">
        <ele>2108</ele>
        <time>2010-09-05T09:14:44Z</time>
      </trkpt>
      <trkpt lat="46.431076023727655" lon="8.112449962645769">
        <ele>2107</ele>
        <time>2010-09-05T09:14:48Z</time>
      </trkpt>
      <trkpt lat="46.431293031200767" lon="8.112667975947261">
        <ele>2108</ele>
        <time>2010-09-05T09:14:53Z</time>
      </trkpt>
      <trkpt lat="46.431483970955014" lon="8.112860005348921">
        <ele>2108</ele>
        <time>2010-09-05T09:15:02Z</time>
      </trkpt>
      <trkpt lat="46.431700978428125" lon="8.113052034750581">
        <ele>2109</ele>
        <time>2010-09-05T09:15:13Z</time>
      </trkpt>
      <trkpt lat="46.431910023093224" lon="8.113216990604997">
        <ele>2110</ele>
        <time>2010-09-05T09:15:23Z</time>
      </trkpt>
      <trkpt lat="46.432180004194379" lon="8.113252026960254">
        <ele>2110</ele>
        <time>2010-09-05T09:15:37Z</time>
      </trkpt>
      <trkpt lat="46.432414026930928" lon="8.113235011696816">
        <ele>2111</ele>
        <time>2010-09-05T09:15:53Z</time>
      </trkpt>
      <trkpt lat="46.432709991931915" lon="8.113191006705165">
        <ele>2114</ele>
        <time>2010-09-05T09:16:12Z</time>
      </trkpt>
      <trkpt lat="46.43293596804142" lon="8.113213973119855">
        <ele>2114</ele>
        <time>2010-09-05T09:16:29Z</time>
      </trkpt>
      <trkpt lat="46.433178959414363" lon="8.113262001425028">
        <ele>2116</ele>
        <time>2010-09-05T09:16:45Z</time>
      </trkpt>
      <trkpt lat="46.433405019342899" lon="8.11337498947978">
        <ele>2117</ele>
        <time>2010-09-05T09:17:00Z</time>
      </trkpt>
      <trkpt lat="46.433630995452404" lon="8.113501975312829">
        <ele>2118</ele>
        <time>2010-09-05T09:17:14Z</time>
      </trkpt>
      <trkpt lat="46.433864012360573" lon="8.113471968099475">
        <ele>2119</ele>
        <time>2010-09-05T09:17:29Z</time>
      </trkpt>
      <trkpt lat="46.439135977998376" lon="8.102751011028886">
        <ele>2123</ele>
        <time>2010-09-05T09:25:16Z</time>
      </trkpt>
      <trkpt lat="46.439277967438102" lon="8.102474994957447">
        <ele>2123</ele>
        <time>2010-09-05T09:25:19Z</time>
      </trkpt>
      <trkpt lat="46.439527999609709" lon="8.102224040776491">
        <ele>2122</ele>
        <time>2010-09-05T09:26:08Z</time>
      </trkpt>
      <trkpt lat="46.439761016517878" lon="8.10211599804461">
        <ele>2123</ele>
        <time>2010-09-05T09:26:17Z</time>
      </trkpt>
      <trkpt lat="46.439976012334228" lon="8.101955987513065">
        <ele>2124</ele>
        <time>2010-09-05T09:26:27Z</time>
      </trkpt>
      <trkpt lat="46.440036026760936" lon="8.10164300724864">
        <ele>2126</ele>
        <time>2010-09-05T09:26:40Z</time>
      </trkpt>
      <trkpt lat="46.440123030915856" lon="8.101276969537139">
        <ele>2126</ele>
        <time>2010-09-05T09:26:52Z</time>
      </trkpt>
      <trkpt lat="46.440300978720188" lon="8.101039007306099">
        <ele>2128</ele>
        <time>2010-09-05T09:27:03Z</time>
      </trkpt>
      <trkpt lat="46.440581018105149" lon="8.101100027561188">
        <ele>2128</ele>
        <time>2010-09-05T09:27:14Z</time>
      </trkpt>
      <trkpt lat="46.440814035013318" lon="8.100978992879391">
        <ele>2129</ele>
        <time>2010-09-05T09:27:29Z</time>
      </trkpt>
      <trkpt lat="46.440744968131185" lon="8.101332038640976">
        <ele>2132</ele>
        <time>2010-09-05T09:28:23Z</time>
      </trkpt>
      <trkpt lat="46.440684031695127" lon="8.101671002805233">
        <ele>2133</ele>
        <time>2010-09-05T09:28:37Z</time>
      </trkpt>
      <trkpt lat="46.440847981721163" lon="8.101903013885021">
        <ele>2135</ele>
        <time>2010-09-05T09:28:51Z</time>
      </trkpt>
      <trkpt lat="46.440975973382592" lon="8.102199984714389">
        <ele>2135</ele>
        <time>2010-09-05T09:29:44Z</time>
      </trkpt>
      <trkpt lat="46.441140007227659" lon="8.102444987744093">
        <ele>2136</ele>
        <time>2010-09-05T09:30:01Z</time>
      </trkpt>
      <trkpt lat="46.441304041072726" lon="8.102715974673629">
        <ele>2137</ele>
        <time>2010-09-05T09:30:16Z</time>
      </trkpt>
      <trkpt lat="46.441423986107111" lon="8.103013029322028">
        <ele>2137</ele>
        <time>2010-09-05T09:30:29Z</time>
      </trkpt>
      <trkpt lat="46.441578967496753" lon="8.103284016251564">
        <ele>2137</ele>
        <time>2010-09-05T09:30:46Z</time>
      </trkpt>
      <trkpt lat="46.441716011613607" lon="8.103567995131016">
        <ele>2136</ele>
        <time>2010-09-05T09:30:57Z</time>
      </trkpt>
      <trkpt lat="46.441835034638643" lon="8.103851974010468">
        <ele>2136</ele>
        <time>2010-09-05T09:31:07Z</time>
      </trkpt>
      <trkpt lat="46.442017005756497" lon="8.104083985090256">
        <ele>2138</ele>
        <time>2010-09-05T09:31:19Z</time>
      </trkpt>
      <trkpt lat="46.442126976326108" lon="8.104381039738655">
        <ele>2136</ele>
        <time>2010-09-05T09:31:29Z</time>
      </trkpt>
      <trkpt lat="46.442115996032953" lon="8.104030005633831">
        <ele>2140</ele>
        <time>2010-09-05T09:32:05Z</time>
      </trkpt>
      <trkpt lat="46.442040977999568" lon="8.103692969307303">
        <ele>2142</ele>
        <time>2010-09-05T09:32:18Z</time>
      </trkpt>
      <trkpt lat="46.441904017701745" lon="8.103369008749723">
        <ele>2141</ele>
        <time>2010-09-05T09:32:32Z</time>
      </trkpt>
      <trkpt lat="46.441810978576541" lon="8.103058962151408">
        <ele>2141</ele>
        <time>2010-09-05T09:32:42Z</time>
      </trkpt>
      <trkpt lat="46.44176403991878" lon="8.102721003815532">
        <ele>2141</ele>
        <time>2010-09-05T09:32:56Z</time>
      </trkpt>
      <trkpt lat="46.441644011065364" lon="8.102423027157784">
        <ele>2141</ele>
        <time>2010-09-05T09:33:21Z</time>
      </trkpt>
      <trkpt lat="46.441479977220297" lon="8.102113986387849">
        <ele>2142</ele>
        <time>2010-09-05T09:33:41Z</time>
      </trkpt>
      <trkpt lat="46.441369000822306" lon="8.101803017780185">
        <ele>2143</ele>
        <time>2010-09-05T09:33:54Z</time>
      </trkpt>
      <trkpt lat="46.441266993060708" lon="8.101452989503741">
        <ele>2142</ele>
        <time>2010-09-05T09:34:04Z</time>
      </trkpt>
      <trkpt lat="46.441246038302779" lon="8.100985027849674">
        <ele>2142</ele>
        <time>2010-09-05T09:34:16Z</time>
      </trkpt>
      <trkpt lat="46.441316027194262" lon="8.100671041756868">
        <ele>2141</ele>
        <time>2010-09-05T09:34:23Z</time>
      </trkpt>
      <trkpt lat="46.441321978345513" lon="8.100320007652044">
        <ele>2142</ele>
        <time>2010-09-05T09:34:31Z</time>
      </trkpt>
      <trkpt lat="46.441264981403947" lon="8.099981965497136">
        <ele>2143</ele>
        <time>2010-09-05T09:34:41Z</time>
      </trkpt>
      <trkpt lat="46.441324995830655" lon="8.099630009382963">
        <ele>2141</ele>
        <time>2010-09-05T09:34:50Z</time>
      </trkpt>
      <trkpt lat="46.441321978345513" lon="8.099251985549927">
        <ele>2142</ele>
        <time>2010-09-05T09:34:58Z</time>
      </trkpt>
      <trkpt lat="46.441256012767553" lon="8.098888965323567">
        <ele>2142</ele>
        <time>2010-09-05T09:35:07Z</time>
      </trkpt>
      <trkpt lat="46.441226005554199" lon="8.098499039188027">
        <ele>2142</ele>
        <time>2010-09-05T09:35:20Z</time>
      </trkpt>
      <trkpt lat="46.4413140155375" lon="8.098171977326274">
        <ele>2141</ele>
        <time>2010-09-05T09:35:31Z</time>
      </trkpt>
      <trkpt lat="46.441382998600602" lon="8.09781901538372">
        <ele>2142</ele>
        <time>2010-09-05T09:35:46Z</time>
      </trkpt>
      <trkpt lat="46.441344022750854" lon="8.09745498932898">
        <ele>2143</ele>
        <time>2010-09-05T09:36:07Z</time>
      </trkpt>
      <trkpt lat="46.441295994445682" lon="8.097118036821485">
        <ele>2142</ele>
        <time>2010-09-05T09:36:31Z</time>
      </trkpt>
      <trkpt lat="46.441284008324146" lon="8.096727021038532">
        <ele>2144</ele>
        <time>2010-09-05T09:38:19Z</time>
      </trkpt>
      <trkpt lat="46.441353997215629" lon="8.096414040774107">
        <ele>2145</ele>
        <time>2010-09-05T09:38:33Z</time>
      </trkpt>
      <trkpt lat="46.441459022462368" lon="8.096008021384478">
        <ele>2145</ele>
        <time>2010-09-05T09:39:34Z</time>
      </trkpt>
      <trkpt lat="46.441607968881726" lon="8.095576018095017">
        <ele>2145</ele>
        <time>2010-09-05T09:40:07Z</time>
      </trkpt>
      <trkpt lat="46.441687010228634" lon="8.095236970111728">
        <ele>2144</ele>
        <time>2010-09-05T09:40:17Z</time>
      </trkpt>
      <trkpt lat="46.441774014383554" lon="8.094909992069006">
        <ele>2143</ele>
        <time>2010-09-05T09:40:26Z</time>
      </trkpt>
      <trkpt lat="46.441861018538475" lon="8.094557030126452">
        <ele>2143</ele>
        <time>2010-09-05T09:40:37Z</time>
      </trkpt>
      <trkpt lat="46.441877027973533" lon="8.09423097409308">
        <ele>2143</ele>
        <time>2010-09-05T09:40:47Z</time>
      </trkpt>
      <trkpt lat="46.441882979124784" lon="8.093866026028991">
        <ele>2139</ele>
        <time>2010-09-05T09:41:21Z</time>
      </trkpt>
      <trkpt lat="46.441951962187886" lon="8.093513986095786">
        <ele>2138</ele>
        <time>2010-09-05T09:41:44Z</time>
      </trkpt>
      <trkpt lat="46.44211096689105" lon="8.093080976977944">
        <ele>2135</ele>
        <time>2010-09-05T09:42:23Z</time>
      </trkpt>
      <trkpt lat="46.442242981866002" lon="8.092779982835054">
        <ele>2134</ele>
        <time>2010-09-05T09:43:04Z</time>
      </trkpt>
      <trkpt lat="46.442401986569166" lon="8.092360971495509">
        <ele>2134</ele>
        <time>2010-09-05T09:43:34Z</time>
      </trkpt>
      <trkpt lat="46.442561997100711" lon="8.092098031193018">
        <ele>2135</ele>
        <time>2010-09-05T09:44:16Z</time>
      </trkpt>
      <trkpt lat="46.442809011787176" lon="8.091559996828437">
        <ele>2140</ele>
        <time>2010-09-05T09:48:06Z</time>
      </trkpt>
      <trkpt lat="46.442932980135083" lon="8.09124500490725">
        <ele>2143</ele>
        <time>2010-09-05T09:48:53Z</time>
      </trkpt>
      <trkpt lat="46.443092990666628" lon="8.090994972735643">
        <ele>2145</ele>
        <time>2010-09-05T09:49:22Z</time>
      </trkpt>
      <trkpt lat="46.443244032561779" lon="8.090745024383068">
        <ele>2146</ele>
        <time>2010-09-05T09:49:48Z</time>
      </trkpt>
      <trkpt lat="46.443403959274292" lon="8.090456016361713">
        <ele>2147</ele>
        <time>2010-09-05T09:50:12Z</time>
      </trkpt>
      <trkpt lat="46.443572016432881" lon="8.090167008340359">
        <ele>2146</ele>
        <time>2010-09-05T09:50:39Z</time>
      </trkpt>
      <trkpt lat="46.44374099560082" lon="8.08989099226892">
        <ele>2149</ele>
        <time>2010-09-05T09:50:51Z</time>
      </trkpt>
      <trkpt lat="46.443919027224183" lon="8.089600978419185">
        <ele>2148</ele>
        <time>2010-09-05T09:51:01Z</time>
      </trkpt>
      <trkpt lat="46.444177022203803" lon="8.089220020920038">
        <ele>2149</ele>
        <time>2010-09-05T09:51:41Z</time>
      </trkpt>
      <trkpt lat="46.444337032735348" lon="8.088969988748431">
        <ele>2150</ele>
        <time>2010-09-05T09:51:55Z</time>
      </trkpt>
      <trkpt lat="46.444140980020165" lon="8.08924600481987">
        <ele>2150</ele>
        <time>2010-09-05T09:58:54Z</time>
      </trkpt>
      <trkpt lat="46.443963032215834" lon="8.089549010619521">
        <ele>2150</ele>
        <time>2010-09-05T09:59:35Z</time>
      </trkpt>
      <trkpt lat="46.443803021684289" lon="8.089812034741044">
        <ele>2150</ele>
        <time>2010-09-05T09:59:48Z</time>
      </trkpt>
      <trkpt lat="46.443643011152744" lon="8.090061983093619">
        <ele>2149</ele>
        <time>2010-09-05T09:59:57Z</time>
      </trkpt>
      <trkpt lat="46.443502027541399" lon="8.090336993336678">
        <ele>2149</ele>
        <time>2010-09-05T10:00:05Z</time>
      </trkpt>
      <trkpt lat="46.443350985646248" lon="8.090626001358032">
        <ele>2149</ele>
        <time>2010-09-05T10:00:31Z</time>
      </trkpt>
      <trkpt lat="46.443173037841916" lon="8.090863963589072">
        <ele>2149</ele>
        <time>2010-09-05T10:00:47Z</time>
      </trkpt>
      <trkpt lat="46.443003974854946" lon="8.091113995760679">
        <ele>2149</ele>
        <time>2010-09-05T10:01:05Z</time>
      </trkpt>
      <trkpt lat="46.442853016778827" lon="8.091403003782034">
        <ele>2147</ele>
        <time>2010-09-05T10:01:16Z</time>
      </trkpt>
      <trkpt lat="46.442650007084012" lon="8.091874988749623">
        <ele>2142</ele>
        <time>2010-09-05T10:02:41Z</time>
      </trkpt>
      <trkpt lat="46.442509023472667" lon="8.092281008139253">
        <ele>2140</ele>
        <time>2010-09-05T10:03:31Z</time>
      </trkpt>
      <trkpt lat="46.44232202321291" lon="8.09249198064208">
        <ele>2139</ele>
        <time>2010-09-05T10:03:56Z</time>
      </trkpt>
      <trkpt lat="46.442469963803887" lon="8.09298399835825">
        <ele>2140</ele>
        <time>2010-09-05T10:05:47Z</time>
      </trkpt>
      <trkpt lat="46.442703986540437" lon="8.093032026663423">
        <ele>2140</ele>
        <time>2010-09-05T10:06:06Z</time>
      </trkpt>
      <trkpt lat="46.442225966602564" lon="8.092871010303497">
        <ele>2139</ele>
        <time>2010-09-05T10:06:44Z</time>
      </trkpt>
      <trkpt lat="46.442066039890051" lon="8.09313403442502">
        <ele>2140</ele>
        <time>2010-09-05T10:07:38Z</time>
      </trkpt>
      <trkpt lat="46.441960008814931" lon="8.093436034396291">
        <ele>2142</ele>
        <time>2010-09-05T10:08:08Z</time>
      </trkpt>
      <trkpt lat="46.441908963024616" lon="8.093787990510464">
        <ele>2144</ele>
        <time>2010-09-05T10:08:37Z</time>
      </trkpt>
      <trkpt lat="46.441884990781546" lon="8.094153022393584">
        <ele>2148</ele>
        <time>2010-09-05T10:09:14Z</time>
      </trkpt>
      <trkpt lat="46.441861018538475" lon="8.094517970457673">
        <ele>2148</ele>
        <time>2010-09-05T10:09:43Z</time>
      </trkpt>
      <trkpt lat="46.441819025203586" lon="8.094870010390878">
        <ele>2149</ele>
        <time>2010-09-05T10:10:17Z</time>
      </trkpt>
      <trkpt lat="46.441739983856678" lon="8.095183996483684">
        <ele>2149</ele>
        <time>2010-09-05T10:10:30Z</time>
      </trkpt>
      <trkpt lat="46.44163403660059" lon="8.095484990626574">
        <ele>2150</ele>
        <time>2010-09-05T10:10:42Z</time>
      </trkpt>
      <trkpt lat="46.441646022722125" lon="8.095823032781482">
        <ele>2151</ele>
        <time>2010-09-05T10:10:54Z</time>
      </trkpt>
      <trkpt lat="46.441494980826974" lon="8.096085973083973">
        <ele>2150</ele>
        <time>2010-09-05T10:11:07Z</time>
      </trkpt>
      <trkpt lat="46.44139900803566" lon="8.096399959176779">
        <ele>2151</ele>
        <time>2010-09-05T10:11:21Z</time>
      </trkpt>
      <trkpt lat="46.44135600887239" lon="8.096726015210152">
        <ele>2149</ele>
        <time>2010-09-05T10:11:40Z</time>
      </trkpt>
      <trkpt lat="46.441341005265713" lon="8.097090963274241">
        <ele>2150</ele>
        <time>2010-09-05T10:11:51Z</time>
      </trkpt>
      <trkpt lat="46.441371012479067" lon="8.097429005429149">
        <ele>2148</ele>
        <time>2010-09-05T10:12:03Z</time>
      </trkpt>
      <trkpt lat="46.441401019692421" lon="8.097766963765025">
        <ele>2148</ele>
        <time>2010-09-05T10:12:15Z</time>
      </trkpt>
      <trkpt lat="46.441358020529151" lon="8.098106011748314">
        <ele>2148</ele>
        <time>2010-09-05T10:12:42Z</time>
      </trkpt>
      <trkpt lat="46.441234974190593" lon="8.098446987569332">
        <ele>2147</ele>
        <time>2010-09-05T10:13:03Z</time>
      </trkpt>
      <trkpt lat="46.441283002495766" lon="8.09878402389586">
        <ele>2147</ele>
        <time>2010-09-05T10:13:15Z</time>
      </trkpt>
      <trkpt lat="46.441312003880739" lon="8.099147966131568">
        <ele>2147</ele>
        <time>2010-09-05T10:13:27Z</time>
      </trkpt>
      <trkpt lat="46.441360032185912" lon="8.099524984136224">
        <ele>2147</ele>
        <time>2010-09-05T10:13:36Z</time>
      </trkpt>
      <trkpt lat="46.441372018307447" lon="8.099863026291132">
        <ele>2148</ele>
        <time>2010-09-05T10:13:45Z</time>
      </trkpt>
      <trkpt lat="46.441303035244346" lon="8.10020299628377">
        <ele>2149</ele>
        <time>2010-09-05T10:13:55Z</time>
      </trkpt>
      <trkpt lat="46.441323990002275" lon="8.100605998188257">
        <ele>2148</ele>
        <time>2010-09-05T10:14:04Z</time>
      </trkpt>
      <trkpt lat="46.441281996667385" lon="8.100958038121462">
        <ele>2149</ele>
        <time>2010-09-05T10:14:13Z</time>
      </trkpt>
      <trkpt lat="46.441302029415965" lon="8.101308988407254">
        <ele>2149</ele>
        <time>2010-09-05T10:14:22Z</time>
      </trkpt>
      <trkpt lat="46.441160961985588" lon="8.101572012528777">
        <ele>2147</ele>
        <time>2010-09-05T10:14:39Z</time>
      </trkpt>
      <trkpt lat="46.440935991704464" lon="8.101653987541795">
        <ele>2144</ele>
        <time>2010-09-05T10:14:54Z</time>
      </trkpt>
      <trkpt lat="46.440702974796295" lon="8.101801006123424">
        <ele>2142</ele>
        <time>2010-09-05T10:15:06Z</time>
      </trkpt>
      <trkpt lat="46.440611025318503" lon="8.10149003751576">
        <ele>2140</ele>
        <time>2010-09-05T10:15:12Z</time>
      </trkpt>
      <trkpt lat="46.440815040841699" lon="8.101160963997245">
        <ele>2138</ele>
        <time>2010-09-05T10:15:19Z</time>
      </trkpt>
      <trkpt lat="46.440791990607977" lon="8.10048496350646">
        <ele>2134</ele>
        <time>2010-09-05T10:16:15Z</time>
      </trkpt>
      <trkpt lat="46.440788973122835" lon="8.100067963823676">
        <ele>2132</ele>
        <time>2010-09-05T10:16:48Z</time>
      </trkpt>
      <trkpt lat="46.44066902808845" lon="8.099732017144561">
        <ele>2130</ele>
        <time>2010-09-05T10:17:20Z</time>
      </trkpt>
      <trkpt lat="46.440460989251733" lon="8.099565971642733">
        <ele>2126</ele>
        <time>2010-09-05T10:17:56Z</time>
      </trkpt>
      <trkpt lat="46.440358981490135" lon="8.099255003035069">
        <ele>2126</ele>
        <time>2010-09-05T10:18:15Z</time>
      </trkpt>
      <trkpt lat="46.440366022288799" lon="8.098903968930244">
        <ele>2125</ele>
        <time>2010-09-05T10:18:33Z</time>
      </trkpt>
      <trkpt lat="46.440317993983626" lon="8.098566010594368">
        <ele>2124</ele>
        <time>2010-09-05T10:18:48Z</time>
      </trkpt>
      <trkpt lat="46.440242975950241" lon="8.098241966217756">
        <ele>2122</ele>
        <time>2010-09-05T10:19:02Z</time>
      </trkpt>
      <trkpt lat="46.4401950314641" lon="8.097786996513605">
        <ele>2121</ele>
        <time>2010-09-05T10:19:23Z</time>
      </trkpt>
      <trkpt lat="46.440128982067108" lon="8.097462030127645">
        <ele>2121</ele>
        <time>2010-09-05T10:19:34Z</time>
      </trkpt>
      <trkpt lat="46.440000990405679" lon="8.097151983529329">
        <ele>2117</ele>
        <time>2010-09-05T10:20:07Z</time>
      </trkpt>
      <trkpt lat="46.439837040379643" lon="8.096906980499625">
        <ele>2117</ele>
        <time>2010-09-05T10:20:38Z</time>
      </trkpt>
      <trkpt lat="46.439646016806364" lon="8.096649991348386">
        <ele>2116</ele>
        <time>2010-09-05T10:20:58Z</time>
      </trkpt>
      <trkpt lat="46.439669989049435" lon="8.096298035234213">
        <ele>2117</ele>
        <time>2010-09-05T10:21:21Z</time>
      </trkpt>
      <trkpt lat="46.439658002927899" lon="8.095959993079305">
        <ele>2114</ele>
        <time>2010-09-05T10:21:40Z</time>
      </trkpt>
      <trkpt lat="46.439673006534576" lon="8.095504017546773">
        <ele>2112</ele>
        <time>2010-09-05T10:22:17Z</time>
      </trkpt>
      <trkpt lat="46.439787000417709" lon="8.095190031453967">
        <ele>2110</ele>
        <time>2010-09-05T10:22:36Z</time>
      </trkpt>
      <trkpt lat="46.439820025116205" lon="8.09474696405232">
        <ele>2108</ele>
        <time>2010-09-05T10:23:04Z</time>
      </trkpt>
      <trkpt lat="46.439907029271126" lon="8.094406994059682">
        <ele>2105</ele>
        <time>2010-09-05T10:23:30Z</time>
      </trkpt>
      <trkpt lat="46.439940975978971" lon="8.094081021845341">
        <ele>2103</ele>
        <time>2010-09-05T10:24:02Z</time>
      </trkpt>
      <trkpt lat="46.440081959590316" lon="8.093805005773902">
        <ele>2101</ele>
        <time>2010-09-05T10:24:33Z</time>
      </trkpt>
      <trkpt lat="46.440107021480799" lon="8.093466041609645">
        <ele>2100</ele>
        <time>2010-09-05T10:24:46Z</time>
      </trkpt>
      <trkpt lat="46.440293015912175" lon="8.093098998069763">
        <ele>2096</ele>
        <time>2010-09-05T10:25:14Z</time>
      </trkpt>
      <trkpt lat="46.440353030338883" lon="8.092732960358262">
        <ele>2096</ele>
        <time>2010-09-05T10:25:33Z</time>
      </trkpt>
      <trkpt lat="46.44036702811718" lon="8.092329036444426">
        <ele>2095</ele>
        <time>2010-09-05T10:25:41Z</time>
      </trkpt>
      <trkpt lat="46.440383037552238" lon="8.091965010389686">
        <ele>2093</ele>
        <time>2010-09-05T10:25:48Z</time>
      </trkpt>
      <trkpt lat="46.440470041707158" lon="8.09165102429688">
        <ele>2093</ele>
        <time>2010-09-05T10:25:56Z</time>
      </trkpt>
      <trkpt lat="46.440629968419671" lon="8.091388000175357">
        <ele>2090</ele>
        <time>2010-09-05T10:26:08Z</time>
      </trkpt>
      <trkpt lat="46.440617982298136" lon="8.091035960242152">
        <ele>2089</ele>
        <time>2010-09-05T10:26:22Z</time>
      </trkpt>
      <trkpt lat="46.440615970641375" lon="8.09068500995636">
        <ele>2088</ele>
        <time>2010-09-05T10:26:30Z</time>
      </trkpt>
      <trkpt lat="46.440531983971596" lon="8.090360965579748">
        <ele>2094</ele>
        <time>2010-09-05T10:50:53Z</time>
      </trkpt>
      <trkpt lat="46.44036803394556" lon="8.090102970600128">
        <ele>2094</ele>
        <time>2010-09-05T10:51:22Z</time>
      </trkpt>
      <trkpt lat="46.440185979008675" lon="8.089898033067584">
        <ele>2095</ele>
        <time>2010-09-05T10:51:46Z</time>
      </trkpt>
      <trkpt lat="46.440121019259095" lon="8.089573988690972">
        <ele>2095</ele>
        <time>2010-09-05T10:52:12Z</time>
      </trkpt>
      <trkpt lat="46.440054969862103" lon="8.089249022305012">
        <ele>2098</ele>
        <time>2010-09-05T10:53:05Z</time>
      </trkpt>
      <trkpt lat="46.43987400457263" lon="8.089056992903352">
        <ele>2096</ele>
        <time>2010-09-05T10:53:39Z</time>
      </trkpt>
      <trkpt lat="46.439771996811032" lon="8.088746024295688">
        <ele>2099</ele>
        <time>2010-09-05T10:56:00Z</time>
      </trkpt>
      <trkpt lat="46.439590025693178" lon="8.088528010994196">
        <ele>2105</ele>
        <time>2010-09-05T10:56:34Z</time>
      </trkpt>
      <trkpt lat="46.439399002119899" lon="8.088231962174177">
        <ele>2109</ele>
        <time>2010-09-05T11:02:06Z</time>
      </trkpt>
      <trkpt lat="46.439323984086514" lon="8.087908001616597">
        <ele>2113</ele>
        <time>2010-09-05T11:02:49Z</time>
      </trkpt>
      <trkpt lat="46.439204039052129" lon="8.08750600554049">
        <ele>2118</ele>
        <time>2010-09-05T11:03:35Z</time>
      </trkpt>
      <trkpt lat="46.439119968563318" lon="8.087078025564551">
        <ele>2126</ele>
        <time>2010-09-05T11:05:49Z</time>
      </trkpt>
      <trkpt lat="46.438867002725601" lon="8.086965037509799">
        <ele>2133</ele>
        <time>2010-09-05T11:07:37Z</time>
      </trkpt>
      <trkpt lat="46.438631974160671" lon="8.086891025304794">
        <ele>2137</ele>
        <time>2010-09-05T11:08:02Z</time>
      </trkpt>
      <trkpt lat="46.438380014151335" lon="8.08681701309979">
        <ele>2138</ele>
        <time>2010-09-05T11:16:53Z</time>
      </trkpt>
      <trkpt lat="46.438145991414785" lon="8.086781976744533">
        <ele>2141</ele>
        <time>2010-09-05T11:17:20Z</time>
      </trkpt>
      <trkpt lat="46.437910962849855" lon="8.086747024208307">
        <ele>2143</ele>
        <time>2010-09-05T11:17:46Z</time>
      </trkpt>
      <trkpt lat="46.437685992568731" lon="8.086672006174922">
        <ele>2147</ele>
        <time>2010-09-05T11:18:16Z</time>
      </trkpt>
      <trkpt lat="46.43746898509562" lon="8.08655901812017">
        <ele>2150</ele>
        <time>2010-09-05T11:18:43Z</time>
      </trkpt>
      <trkpt lat="46.437234040349722" lon="8.086510989814997">
        <ele>2151</ele>
        <time>2010-09-05T11:19:09Z</time>
      </trkpt>
      <trkpt lat="46.436990965157747" lon="8.086436977609992">
        <ele>2153</ele>
        <time>2010-09-05T11:19:35Z</time>
      </trkpt>
      <trkpt lat="46.436746967956424" lon="8.086322983726859">
        <ele>2154</ele>
        <time>2010-09-05T11:19:56Z</time>
      </trkpt>
      <trkpt lat="46.436529960483313" lon="8.086197003722191">
        <ele>2153</ele>
        <time>2010-09-05T11:20:05Z</time>
      </trkpt>
      <trkpt lat="46.436285963281989" lon="8.086071023717523">
        <ele>2151</ele>
        <time>2010-09-05T11:20:15Z</time>
      </trkpt>
      <trkpt lat="46.436051018536091" lon="8.085971027612686">
        <ele>2151</ele>
        <time>2010-09-05T11:20:24Z</time>
      </trkpt>
      <trkpt lat="46.435790006071329" lon="8.085974967107177">
        <ele>2152</ele>
        <time>2010-09-05T11:20:34Z</time>
      </trkpt>
      <trkpt lat="46.435547014698386" lon="8.085953006520867">
        <ele>2150</ele>
        <time>2010-09-05T11:20:42Z</time>
      </trkpt>
      <trkpt lat="46.435140995308757" lon="8.085843035951257">
        <ele>2146</ele>
        <time>2010-09-05T11:21:31Z</time>
      </trkpt>
      <trkpt lat="46.434906972572207" lon="8.085806993767619">
        <ele>2148</ele>
        <time>2010-09-05T11:21:49Z</time>
      </trkpt>
      <trkpt lat="46.434672027826309" lon="8.085772041231394">
        <ele>2146</ele>
        <time>2010-09-05T11:21:59Z</time>
      </trkpt>
      <trkpt lat="46.434445967897773" lon="8.085632985457778">
        <ele>2147</ele>
        <time>2010-09-05T11:22:09Z</time>
      </trkpt>
      <trkpt lat="46.434194007888436" lon="8.085598032921553">
        <ele>2145</ele>
        <time>2010-09-05T11:22:17Z</time>
      </trkpt>
      <trkpt lat="46.433968031778932" lon="8.085471969097853">
        <ele>2142</ele>
        <time>2010-09-05T11:22:29Z</time>
      </trkpt>
      <trkpt lat="46.433724034577608" lon="8.085371972993016">
        <ele>2142</ele>
        <time>2010-09-05T11:22:38Z</time>
      </trkpt>
      <trkpt lat="46.433524964377284" lon="8.085167035460472">
        <ele>2139</ele>
        <time>2010-09-05T11:23:49Z</time>
      </trkpt>
      <trkpt lat="46.433298988267779" lon="8.085066033527255">
        <ele>2138</ele>
        <time>2010-09-05T11:23:56Z</time>
      </trkpt>
      <trkpt lat="46.433046022430062" lon="8.084966959431768">
        <ele>2138</ele>
        <time>2010-09-05T11:24:04Z</time>
      </trkpt>
      <trkpt lat="46.432802025228739" lon="8.084840979427099">
        <ele>2137</ele>
        <time>2010-09-05T11:24:12Z</time>
      </trkpt>
      <trkpt lat="46.432559033855796" lon="8.084843996912241">
        <ele>2138</ele>
        <time>2010-09-05T11:24:20Z</time>
      </trkpt>
      <trkpt lat="46.432288968935609" lon="8.084849026054144">
        <ele>2139</ele>
        <time>2010-09-05T11:24:28Z</time>
      </trkpt>
      <trkpt lat="46.432037008926272" lon="8.084866041317582">
        <ele>2140</ele>
        <time>2010-09-05T11:24:37Z</time>
      </trkpt>
      <trkpt lat="46.431801980361342" lon="8.084765961393714">
        <ele>2141</ele>
        <time>2010-09-05T11:24:46Z</time>
      </trkpt>
      <trkpt lat="46.43160299398005" lon="8.084587007761002">
        <ele>2143</ele>
        <time>2010-09-05T11:24:56Z</time>
      </trkpt>
      <trkpt lat="46.431385986506939" lon="8.08443496003747">
        <ele>2144</ele>
        <time>2010-09-05T11:25:06Z</time>
      </trkpt>
      <trkpt lat="46.431160010397434" lon="8.084307974204421">
        <ele>2144</ele>
        <time>2010-09-05T11:25:20Z</time>
      </trkpt>
      <trkpt lat="46.430968986824155" lon="8.084116028621793">
        <ele>2145</ele>
        <time>2010-09-05T11:25:38Z</time>
      </trkpt>
      <trkpt lat="46.430795984342694" lon="8.083898015320301">
        <ele>2146</ele>
        <time>2010-09-05T11:25:53Z</time>
      </trkpt>
      <trkpt lat="46.43055098131299" lon="8.083642031997442">
        <ele>2146</ele>
        <time>2010-09-05T11:26:25Z</time>
      </trkpt>
      <trkpt lat="46.430351994931698" lon="8.083450002595782">
        <ele>2145</ele>
        <time>2010-09-05T11:26:33Z</time>
      </trkpt>
      <trkpt lat="46.430144039914012" lon="8.083310024812818">
        <ele>2146</ele>
        <time>2010-09-05T11:26:42Z</time>
      </trkpt>
      <trkpt lat="46.429909011349082" lon="8.083210028707981">
        <ele>2149</ele>
        <time>2010-09-05T11:26:54Z</time>
      </trkpt>
      <trkpt lat="46.429683035239577" lon="8.083070972934365">
        <ele>2147</ele>
        <time>2010-09-05T11:27:04Z</time>
      </trkpt>
      <trkpt lat="46.429421016946435" lon="8.082932000979781">
        <ele>2146</ele>
        <time>2010-09-05T11:27:14Z</time>
      </trkpt>
      <trkpt lat="46.429211972281337" lon="8.082752963528037">
        <ele>2145</ele>
        <time>2010-09-05T11:27:36Z</time>
      </trkpt>
      <trkpt lat="46.429038969799876" lon="8.082495974376798">
        <ele>2143</ele>
        <time>2010-09-05T11:27:44Z</time>
      </trkpt>
      <trkpt lat="46.428947020322084" lon="8.082185005769134">
        <ele>2141</ele>
        <time>2010-09-05T11:27:55Z</time>
      </trkpt>
      <trkpt lat="46.428935034200549" lon="8.081807987764478">
        <ele>2140</ele>
        <time>2010-09-05T11:28:07Z</time>
      </trkpt>
      <trkpt lat="46.428860016167164" lon="8.081470029428601">
        <ele>2137</ele>
        <time>2010-09-05T11:28:13Z</time>
      </trkpt>
      <trkpt lat="46.428784998133779" lon="8.081120001152158">
        <ele>2138</ele>
        <time>2010-09-05T11:28:19Z</time>
      </trkpt>
      <trkpt lat="46.428709980100393" lon="8.080743988975883">
        <ele>2134</ele>
        <time>2010-09-05T11:28:27Z</time>
      </trkpt>
      <trkpt lat="46.428563967347145" lon="8.080447018146515">
        <ele>2132</ele>
        <time>2010-09-05T11:28:33Z</time>
      </trkpt>
      <trkpt lat="46.42844402231276" lon="8.080097995698452">
        <ele>2130</ele>
        <time>2010-09-05T11:28:39Z</time>
      </trkpt>
      <trkpt lat="46.428306978195906" lon="8.079827008768916">
        <ele>2127</ele>
        <time>2010-09-05T11:28:46Z</time>
      </trkpt>
      <trkpt lat="46.428116038441658" lon="8.07962198741734">
        <ele>2123</ele>
        <time>2010-09-05T11:31:53Z</time>
      </trkpt>
      <trkpt lat="46.427960973232985" lon="8.079338008537889">
        <ele>2122</ele>
        <time>2010-09-05T11:32:02Z</time>
      </trkpt>
      <trkpt lat="46.427731979638338" lon="8.078912040218711">
        <ele>2117</ele>
        <time>2010-09-05T11:33:11Z</time>
      </trkpt>
      <trkpt lat="46.427576998248696" lon="8.07865496724844">
        <ele>2116</ele>
        <time>2010-09-05T11:33:38Z</time>
      </trkpt>
      <trkpt lat="46.427449006587267" lon="8.078343998640776">
        <ele>2111</ele>
        <time>2010-09-05T11:34:10Z</time>
      </trkpt>
      <trkpt lat="46.4272849727422" lon="8.07807401753962">
        <ele>2109</ele>
        <time>2010-09-05T11:34:20Z</time>
      </trkpt>
      <trkpt lat="46.427121022716165" lon="8.077829014509916">
        <ele>2106</ele>
        <time>2010-09-05T11:34:27Z</time>
      </trkpt>
      <trkpt lat="46.426894040778279" lon="8.077599015086889">
        <ele>2103</ele>
        <time>2010-09-05T11:34:36Z</time>
      </trkpt>
      <trkpt lat="46.426677033305168" lon="8.077420983463526">
        <ele>2098</ele>
        <time>2010-09-05T11:34:42Z</time>
      </trkpt>
      <trkpt lat="46.426486009731889" lon="8.077202970162034">
        <ele>2097</ele>
        <time>2010-09-05T11:34:47Z</time>
      </trkpt>
      <trkpt lat="46.426339996978641" lon="8.076931983232498">
        <ele>2096</ele>
        <time>2010-09-05T11:35:05Z</time>
      </trkpt>
      <trkpt lat="46.426121983677149" lon="8.07674003764987">
        <ele>2094</ele>
        <time>2010-09-05T11:35:11Z</time>
      </trkpt>
      <trkpt lat="46.425913022831082" lon="8.076496040448546">
        <ele>2094</ele>
        <time>2010-09-05T11:35:16Z</time>
      </trkpt>
      <trkpt lat="46.425703978165984" lon="8.076279032975435">
        <ele>2092</ele>
        <time>2010-09-05T11:35:21Z</time>
      </trkpt>
      <trkpt lat="46.425496023148298" lon="8.076125979423523">
        <ele>2092</ele>
        <time>2010-09-05T11:35:32Z</time>
      </trkpt>
      <trkpt lat="46.425287984311581" lon="8.075973009690642">
        <ele>2093</ele>
        <time>2010-09-05T11:35:45Z</time>
      </trkpt>
      <trkpt lat="46.425087992101908" lon="8.075767988339067">
        <ele>2094</ele>
        <time>2010-09-05T11:35:57Z</time>
      </trkpt>
      <trkpt lat="46.424880037084222" lon="8.075603032484651">
        <ele>2094</ele>
        <time>2010-09-05T11:36:27Z</time>
      </trkpt>
      <trkpt lat="46.424680966883898" lon="8.075423995032907">
        <ele>2093</ele>
        <time>2010-09-05T11:36:34Z</time>
      </trkpt>
      <trkpt lat="46.424463037401438" lon="8.075245041400194">
        <ele>2090</ele>
        <time>2010-09-05T11:36:40Z</time>
      </trkpt>
      <trkpt lat="46.424228008836508" lon="8.075118977576494">
        <ele>2089</ele>
        <time>2010-09-05T11:36:48Z</time>
      </trkpt>
      <trkpt lat="46.424011001363397" lon="8.074992997571826">
        <ele>2090</ele>
        <time>2010-09-05T11:36:56Z</time>
      </trkpt>
      <trkpt lat="46.42380204051733" lon="8.074813960120082">
        <ele>2093</ele>
        <time>2010-09-05T11:37:08Z</time>
      </trkpt>
      <trkpt lat="46.423602970317006" lon="8.07463500648737">
        <ele>2095</ele>
        <time>2010-09-05T11:37:19Z</time>
      </trkpt>
      <trkpt lat="46.423304993659258" lon="8.074470972642303">
        <ele>2097</ele>
        <time>2010-09-05T11:38:19Z</time>
      </trkpt>
      <trkpt lat="46.423079017549753" lon="8.074396960437298">
        <ele>2099</ele>
        <time>2010-09-05T11:38:45Z</time>
      </trkpt>
      <trkpt lat="46.422872990369797" lon="8.074542973190546">
        <ele>2110</ele>
        <time>2010-09-05T11:40:41Z</time>
      </trkpt>
      <trkpt lat="46.422655982896686" lon="8.074404001235962">
        <ele>2112</ele>
        <time>2010-09-05T11:41:14Z</time>
      </trkpt>
      <trkpt lat="46.422448027879" lon="8.074251031503081">
        <ele>2113</ele>
        <time>2010-09-05T11:41:44Z</time>
      </trkpt>
      <trkpt lat="46.422231020405889" lon="8.074137959629297">
        <ele>2115</ele>
        <time>2010-09-05T11:42:12Z</time>
      </trkpt>
      <trkpt lat="46.422004960477352" lon="8.074051039293408">
        <ele>2115</ele>
        <time>2010-09-05T11:42:37Z</time>
      </trkpt>
      <trkpt lat="46.421779990196228" lon="8.074014997109771">
        <ele>2117</ele>
        <time>2010-09-05T11:43:05Z</time>
      </trkpt>
      <trkpt lat="46.421528030186892" lon="8.073967974632978">
        <ele>2121</ele>
        <time>2010-09-05T11:43:37Z</time>
      </trkpt>
      <trkpt lat="46.421223012730479" lon="8.074167966842651">
        <ele>2130</ele>
        <time>2010-09-05T11:46:28Z</time>
      </trkpt>
      <trkpt lat="46.420981027185917" lon="8.074210966005921">
        <ele>2132</ele>
        <time>2010-09-05T11:47:00Z</time>
      </trkpt>
      <trkpt lat="46.420738035812974" lon="8.074267040938139">
        <ele>2133</ele>
        <time>2010-09-05T11:47:30Z</time>
      </trkpt>
      <trkpt lat="46.420504013076425" lon="8.074296964332461">
        <ele>2137</ele>
        <time>2010-09-05T11:48:28Z</time>
      </trkpt>
      <trkpt lat="46.420305026695132" lon="8.074131002649665">
        <ele>2140</ele>
        <time>2010-09-05T11:48:57Z</time>
      </trkpt>
      <trkpt lat="46.420088019222021" lon="8.074005022644997">
        <ele>2140</ele>
        <time>2010-09-05T11:51:02Z</time>
      </trkpt>
      <trkpt lat="46.419889032840729" lon="8.073825985193253">
        <ele>2140</ele>
        <time>2010-09-05T11:51:12Z</time>
      </trkpt>
      <trkpt lat="46.419679988175631" lon="8.073674021288753">
        <ele>2142</ele>
        <time>2010-09-05T11:51:20Z</time>
      </trkpt>
      <trkpt lat="46.419454012066126" lon="8.073547035455704">
        <ele>2139</ele>
        <time>2010-09-05T11:51:27Z</time>
      </trkpt>
      <trkpt lat="46.419229041785002" lon="8.073447039350867">
        <ele>2139</ele>
        <time>2010-09-05T11:51:35Z</time>
      </trkpt>
      <trkpt lat="46.419001976028085" lon="8.073320975527167">
        <ele>2140</ele>
        <time>2010-09-05T11:51:45Z</time>
      </trkpt>
      <trkpt lat="46.41877599991858" lon="8.073180997744203">
        <ele>2140</ele>
        <time>2010-09-05T11:51:53Z</time>
      </trkpt>
      <trkpt lat="46.418550023809075" lon="8.073042025789619">
        <ele>2142</ele>
        <time>2010-09-05T11:52:15Z</time>
      </trkpt>
      <trkpt lat="46.418306026607752" lon="8.072942029684782">
        <ele>2142</ele>
        <time>2010-09-05T11:52:24Z</time>
      </trkpt>
      <trkpt lat="46.418062029406428" lon="8.07282904163003">
        <ele>2140</ele>
        <time>2010-09-05T11:52:32Z</time>
      </trkpt>
      <trkpt lat="46.417828006669879" lon="8.072794005274773">
        <ele>2140</ele>
        <time>2010-09-05T11:52:40Z</time>
      </trkpt>
      <trkpt lat="46.41759398393333" lon="8.072785036638379">
        <ele>2142</ele>
        <time>2010-09-05T11:52:50Z</time>
      </trkpt>
      <trkpt lat="46.417368007823825" lon="8.072658972814679">
        <ele>2143</ele>
        <time>2010-09-05T11:53:00Z</time>
      </trkpt>
      <trkpt lat="46.417060978710651" lon="8.072546990588307">
        <ele>2141</ele>
        <time>2010-09-05T11:53:07Z</time>
      </trkpt>
      <trkpt lat="46.416816981509328" lon="8.072459986433387">
        <ele>2142</ele>
        <time>2010-09-05T11:53:14Z</time>
      </trkpt>
      <trkpt lat="46.416592011228204" lon="8.072398966178298">
        <ele>2141</ele>
        <time>2010-09-05T11:53:22Z</time>
      </trkpt>
      <trkpt lat="46.416356982663274" lon="8.07233702391386">
        <ele>2141</ele>
        <time>2010-09-05T11:53:29Z</time>
      </trkpt>
      <trkpt lat="46.41613201238215" lon="8.072263011708856">
        <ele>2142</ele>
        <time>2010-09-05T11:53:37Z</time>
      </trkpt>
      <trkpt lat="46.415772009640932" lon="8.072308022528887">
        <ele>2147</ele>
        <time>2010-09-05T11:54:21Z</time>
      </trkpt>
      <trkpt lat="46.415537986904383" lon="8.07227298617363">
        <ele>2148</ele>
        <time>2010-09-05T11:54:59Z</time>
      </trkpt>
      <trkpt lat="46.415320979431272" lon="8.072108030319214">
        <ele>2148</ele>
        <time>2010-09-05T11:55:10Z</time>
      </trkpt>
      <trkpt lat="46.415086034685373" lon="8.071955982595682">
        <ele>2147</ele>
        <time>2010-09-05T11:55:20Z</time>
      </trkpt>
      <trkpt lat="46.414876990020275" lon="8.071790020912886">
        <ele>2149</ele>
        <time>2010-09-05T11:55:29Z</time>
      </trkpt>
      <trkpt lat="46.414632992818952" lon="8.071664040908217">
        <ele>2148</ele>
        <time>2010-09-05T11:55:53Z</time>
      </trkpt>
      <trkpt lat="46.414433000609279" lon="8.07143303565681">
        <ele>2147</ele>
        <time>2010-09-05T11:56:02Z</time>
      </trkpt>
      <trkpt lat="46.41424298286438" lon="8.071228014305234">
        <ele>2148</ele>
        <time>2010-09-05T11:56:13Z</time>
      </trkpt>
      <trkpt lat="46.414042990654707" lon="8.071035984903574">
        <ele>2148</ele>
        <time>2010-09-05T11:56:36Z</time>
      </trkpt>
      <trkpt lat="46.413825983181596" lon="8.070910004898906">
        <ele>2148</ele>
        <time>2010-09-05T11:56:53Z</time>
      </trkpt>
      <trkpt lat="46.413608975708485" lon="8.070718981325626">
        <ele>2150</ele>
        <time>2010-09-05T11:57:09Z</time>
      </trkpt>
      <trkpt lat="46.413390962406993" lon="8.070527035742998">
        <ele>2148</ele>
        <time>2010-09-05T11:57:18Z</time>
      </trkpt>
      <trkpt lat="46.413200022652745" lon="8.070296030491591">
        <ele>2147</ele>
        <time>2010-09-05T11:57:25Z</time>
      </trkpt>
      <trkpt lat="46.413027020171285" lon="8.070052033290267">
        <ele>2145</ele>
        <time>2010-09-05T11:57:30Z</time>
      </trkpt>
      <trkpt lat="46.412809006869793" lon="8.069847011938691">
        <ele>2144</ele>
        <time>2010-09-05T11:57:35Z</time>
      </trkpt>
      <trkpt lat="46.412617983296514" lon="8.06956403888762">
        <ele>2144</ele>
        <time>2010-09-05T11:57:40Z</time>
      </trkpt>
      <trkpt lat="46.412444980815053" lon="8.069293973967433">
        <ele>2144</ele>
        <time>2010-09-05T11:57:45Z</time>
      </trkpt>
      <trkpt lat="46.412298968061805" lon="8.069009995087981">
        <ele>2144</ele>
        <time>2010-09-05T11:57:50Z</time>
      </trkpt>
      <trkpt lat="46.412162007763982" lon="8.068752000108361">
        <ele>2143</ele>
        <time>2010-09-05T11:57:54Z</time>
      </trkpt>
      <trkpt lat="46.412014989182353" lon="8.068442959338427">
        <ele>2144</ele>
        <time>2010-09-05T11:57:59Z</time>
      </trkpt>
      <trkpt lat="46.411851039156318" lon="8.068171972408891">
        <ele>2143</ele>
        <time>2010-09-05T11:58:07Z</time>
      </trkpt>
      <trkpt lat="46.411632020026445" lon="8.067824961617589">
        <ele>2137</ele>
        <time>2010-09-05T11:59:22Z</time>
      </trkpt>
      <trkpt lat="46.411432027816772" lon="8.067646007984877">
        <ele>2134</ele>
        <time>2010-09-05T11:59:31Z</time>
      </trkpt>
      <trkpt lat="46.411276962608099" lon="8.067362029105425">
        <ele>2127</ele>
        <time>2010-09-05T11:59:56Z</time>
      </trkpt>
      <trkpt lat="46.411033971235156" lon="8.067275024950504">
        <ele>2121</ele>
        <time>2010-09-05T12:00:07Z</time>
      </trkpt>
      <trkpt lat="46.410781005397439" lon="8.067226996645331">
        <ele>2119</ele>
        <time>2010-09-05T12:00:15Z</time>
      </trkpt>
      <trkpt lat="46.410538014024496" lon="8.067232025787234">
        <ele>2116</ele>
        <time>2010-09-05T12:00:20Z</time>
      </trkpt>
      <trkpt lat="46.410321006551385" lon="8.067131023854017">
        <ele>2115</ele>
        <time>2010-09-05T12:00:25Z</time>
      </trkpt>
      <trkpt lat="46.410086983814836" lon="8.067108979448676">
        <ele>2115</ele>
        <time>2010-09-05T12:00:34Z</time>
      </trkpt>
      <trkpt lat="46.409843992441893" lon="8.067047959193587">
        <ele>2111</ele>
        <time>2010-09-05T12:00:41Z</time>
      </trkpt>
      <trkpt lat="46.409626984968781" lon="8.066947963088751">
        <ele>2107</ele>
        <time>2010-09-05T12:00:49Z</time>
      </trkpt>
      <trkpt lat="46.409392040222883" lon="8.066808991134167">
        <ele>2107</ele>
        <time>2010-09-05T12:00:58Z</time>
      </trkpt>
      <trkpt lat="46.409165980294347" lon="8.06670899502933">
        <ele>2104</ele>
        <time>2010-09-05T12:01:04Z</time>
      </trkpt>
      <trkpt lat="46.408931035548449" lon="8.06662199087441">
        <ele>2103</ele>
        <time>2010-09-05T12:01:12Z</time>
      </trkpt>
      <trkpt lat="46.408687038347125" lon="8.066534986719489">
        <ele>2099</ele>
        <time>2010-09-05T12:01:21Z</time>
      </trkpt>
      <trkpt lat="46.408425020053983" lon="8.066383022814989">
        <ele>2101</ele>
        <time>2010-09-05T12:01:29Z</time>
      </trkpt>
      <trkpt lat="46.408207006752491" lon="8.066166015341878">
        <ele>2096</ele>
        <time>2010-09-05T12:01:38Z</time>
      </trkpt>
      <trkpt lat="46.407982036471367" lon="8.066065013408661">
        <ele>2096</ele>
        <time>2010-09-05T12:01:44Z</time>
      </trkpt>
      <trkpt lat="46.407737033441663" lon="8.065926041454077">
        <ele>2094</ele>
        <time>2010-09-05T12:02:06Z</time>
      </trkpt>
      <trkpt lat="46.407503010705113" lon="8.065878013148904">
        <ele>2090</ele>
        <time>2010-09-05T12:02:16Z</time>
      </trkpt>
      <trkpt lat="46.407250966876745" lon="8.065830990672112">
        <ele>2091</ele>
        <time>2010-09-05T12:02:25Z</time>
      </trkpt>
      <trkpt lat="46.406998001039028" lon="8.065769970417023">
        <ele>2089</ele>
        <time>2010-09-05T12:02:34Z</time>
      </trkpt>
      <trkpt lat="46.406772024929523" lon="8.06565698236227">
        <ele>2089</ele>
        <time>2010-09-05T12:02:41Z</time>
      </trkpt>
      <trkpt lat="46.406555017456412" lon="8.065451961010695">
        <ele>2087</ele>
        <time>2010-09-05T12:02:47Z</time>
      </trkpt>
      <trkpt lat="46.406363993883133" lon="8.065221039578319">
        <ele>2087</ele>
        <time>2010-09-05T12:03:04Z</time>
      </trkpt>
      <trkpt lat="46.406172970309854" lon="8.065003026276827">
        <ele>2085</ele>
        <time>2010-09-05T12:03:26Z</time>
      </trkpt>
      <trkpt lat="46.405973983928561" lon="8.064812002703548">
        <ele>2085</ele>
        <time>2010-09-05T12:03:54Z</time>
      </trkpt>
      <trkpt lat="46.405765023082495" lon="8.064619973301888">
        <ele>2083</ele>
        <time>2010-09-05T12:04:14Z</time>
      </trkpt>
      <trkpt lat="46.405573999509215" lon="8.064428027719259">
        <ele>2080</ele>
        <time>2010-09-05T12:04:21Z</time>
      </trkpt>
      <trkpt lat="46.405348023399711" lon="8.06423700414598">
        <ele>2079</ele>
        <time>2010-09-05T12:04:27Z</time>
      </trkpt>
      <trkpt lat="46.405156999826431" lon="8.063993006944656">
        <ele>2078</ele>
        <time>2010-09-05T12:04:33Z</time>
      </trkpt>
      <trkpt lat="46.404937980696559" lon="8.063645996153355">
        <ele>2076</ele>
        <time>2010-09-05T12:05:05Z</time>
      </trkpt>
      <trkpt lat="46.404756009578705" lon="8.063400993123651">
        <ele>2074</ele>
        <time>2010-09-05T12:05:11Z</time>
      </trkpt>
      <trkpt lat="46.404574038460851" lon="8.063169987872243">
        <ele>2075</ele>
        <time>2010-09-05T12:05:22Z</time>
      </trkpt>
      <trkpt lat="46.404410004615784" lon="8.062912998721004">
        <ele>2075</ele>
        <time>2010-09-05T12:05:31Z</time>
      </trkpt>
      <trkpt lat="46.404173970222473" lon="8.062644023448229">
        <ele>2076</ele>
        <time>2010-09-05T12:06:31Z</time>
      </trkpt>
      <trkpt lat="46.403956040740013" lon="8.062387034296989">
        <ele>2076</ele>
        <time>2010-09-05T12:11:49Z</time>
      </trkpt>
      <trkpt lat="46.403826959431171" lon="8.062115963548422">
        <ele>2077</ele>
        <time>2010-09-05T12:12:18Z</time>
      </trkpt>
      <trkpt lat="46.403663009405136" lon="8.061871966347098">
        <ele>2078</ele>
        <time>2010-09-05T12:12:42Z</time>
      </trkpt>
      <trkpt lat="46.403464023023844" lon="8.061654036864638">
        <ele>2077</ele>
        <time>2010-09-05T12:12:53Z</time>
      </trkpt>
      <trkpt lat="46.403281968086958" lon="8.061410039663315">
        <ele>2078</ele>
        <time>2010-09-05T12:13:03Z</time>
      </trkpt>
      <trkpt lat="46.403055991977453" lon="8.061257991939783">
        <ele>2078</ele>
        <time>2010-09-05T12:13:13Z</time>
      </trkpt>
      <trkpt lat="46.40285599976778" lon="8.061079038307071">
        <ele>2077</ele>
        <time>2010-09-05T12:13:21Z</time>
      </trkpt>
      <trkpt lat="46.402664976194501" lon="8.060848033055663">
        <ele>2077</ele>
        <time>2010-09-05T12:13:28Z</time>
      </trkpt>
      <trkpt lat="46.402457021176815" lon="8.060682993382216">
        <ele>2078</ele>
        <time>2010-09-05T12:13:35Z</time>
      </trkpt>
      <trkpt lat="46.40231897123158" lon="8.060346962884069">
        <ele>2076</ele>
        <time>2010-09-05T12:13:41Z</time>
      </trkpt>
      <trkpt lat="46.402172958478332" lon="8.060075975954533">
        <ele>2075</ele>
        <time>2010-09-05T12:14:00Z</time>
      </trkpt>
      <trkpt lat="46.401962991803885" lon="8.059742040932179">
        <ele>2077</ele>
        <time>2010-09-05T12:14:25Z</time>
      </trkpt>
      <trkpt lat="46.401799041777849" lon="8.059497037902474">
        <ele>2078</ele>
        <time>2010-09-05T12:14:50Z</time>
      </trkpt>
      <trkpt lat="46.401597959920764" lon="8.059137035161257">
        <ele>2079</ele>
        <time>2010-09-05T12:15:44Z</time>
      </trkpt>
      <trkpt lat="46.40147902071476" lon="8.058851966634393">
        <ele>2081</ele>
        <time>2010-09-05T12:15:55Z</time>
      </trkpt>
      <trkpt lat="46.401332002133131" lon="8.058594977483153">
        <ele>2084</ele>
        <time>2010-09-05T12:16:10Z</time>
      </trkpt>
      <trkpt lat="46.401177020743489" lon="8.058323990553618">
        <ele>2084</ele>
        <time>2010-09-05T12:16:30Z</time>
      </trkpt>
      <trkpt lat="46.400950960814953" lon="8.058159034699202">
        <ele>2082</ele>
        <time>2010-09-05T12:16:42Z</time>
      </trkpt>
      <trkpt lat="46.400812994688749" lon="8.057823004201055">
        <ele>2081</ele>
        <time>2010-09-05T12:16:48Z</time>
      </trkpt>
      <trkpt lat="46.400683997198939" lon="8.057499965652823">
        <ele>2083</ele>
        <time>2010-09-05T12:16:55Z</time>
      </trkpt>
      <trkpt lat="46.400547036901116" lon="8.057202994823456">
        <ele>2083</ele>
        <time>2010-09-05T12:17:05Z</time>
      </trkpt>
      <trkpt lat="46.400330029428005" lon="8.057090006768704">
        <ele>2084</ele>
        <time>2010-09-05T12:17:16Z</time>
      </trkpt>
      <trkpt lat="46.400096006691456" lon="8.057120013982058">
        <ele>2084</ele>
        <time>2010-09-05T12:17:47Z</time>
      </trkpt>
      <trkpt lat="46.399878999218345" lon="8.05695497430861">
        <ele>2083</ele>
        <time>2010-09-05T12:18:00Z</time>
      </trkpt>
      <trkpt lat="46.399643970653415" lon="8.056816002354026">
        <ele>2081</ele>
        <time>2010-09-05T12:18:08Z</time>
      </trkpt>
      <trkpt lat="46.399410031735897" lon="8.056794041767716">
        <ele>2078</ele>
        <time>2010-09-05T12:18:45Z</time>
      </trkpt>
      <trkpt lat="46.399192018434405" lon="8.05665398016572">
        <ele>2072</ele>
        <time>2010-09-05T12:18:58Z</time>
      </trkpt>
      <trkpt lat="46.398996971547604" lon="8.056905018165708">
        <ele>2068</ele>
        <time>2010-09-05T12:19:08Z</time>
      </trkpt>
      <trkpt lat="46.398873003199697" lon="8.057193020358682">
        <ele>2063</ele>
        <time>2010-09-05T12:19:19Z</time>
      </trkpt>
      <trkpt lat="46.398694971576333" lon="8.057416984811425">
        <ele>2057</ele>
        <time>2010-09-05T12:19:53Z</time>
      </trkpt>
      <trkpt lat="46.398517023772001" lon="8.057694006711245">
        <ele>2053</ele>
        <time>2010-09-05T12:20:02Z</time>
      </trkpt>
      <trkpt lat="46.398376040160656" lon="8.058059960603714">
        <ele>2053</ele>
        <time>2010-09-05T12:20:41Z</time>
      </trkpt>
      <trkpt lat="46.398361036553979" lon="8.058399008587003">
        <ele>2050</ele>
        <time>2010-09-05T12:20:49Z</time>
      </trkpt>
      <trkpt lat="46.398543007671833" lon="8.058668989688158">
        <ele>2048</ele>
        <time>2010-09-05T12:20:59Z</time>
      </trkpt>
      <trkpt lat="46.398734031245112" lon="8.058874011039734">
        <ele>2045</ele>
        <time>2010-09-05T12:21:43Z</time>
      </trkpt>
      <trkpt lat="46.398754986003041" lon="8.05925102904439">
        <ele>2040</ele>
        <time>2010-09-05T12:21:51Z</time>
      </trkpt>
      <trkpt lat="46.398784993216395" lon="8.059600973501802">
        <ele>2039</ele>
        <time>2010-09-05T12:21:58Z</time>
      </trkpt>
      <trkpt lat="46.398833021521568" lon="8.05993901565671">
        <ele>2035</ele>
        <time>2010-09-05T12:22:09Z</time>
      </trkpt>
      <trkpt lat="46.399006024003029" lon="8.060170020908117">
        <ele>2028</ele>
        <time>2010-09-05T12:22:24Z</time>
      </trkpt>
      <trkpt lat="46.398937040939927" lon="8.060664972290397">
        <ele>2020</ele>
        <time>2010-09-05T12:22:52Z</time>
      </trkpt>
      <trkpt lat="46.398976016789675" lon="8.060990022495389">
        <ele>2016</ele>
        <time>2010-09-05T12:23:02Z</time>
      </trkpt>
      <trkpt lat="46.399176008999348" lon="8.061180962249637">
        <ele>2010</ele>
        <time>2010-09-05T12:23:14Z</time>
      </trkpt>
      <trkpt lat="46.399061009287834" lon="8.061496037989855">
        <ele>2004</ele>
        <time>2010-09-05T12:23:34Z</time>
      </trkpt>
      <trkpt lat="46.399109037593007" lon="8.061819998547435">
        <ele>1995</ele>
        <time>2010-09-05T12:23:50Z</time>
      </trkpt>
      <trkpt lat="46.399354040622711" lon="8.06208897382021">
        <ele>1988</ele>
        <time>2010-09-05T12:24:11Z</time>
      </trkpt>
      <trkpt lat="46.399383964017034" lon="8.062478983774781">
        <ele>1982</ele>
        <time>2010-09-05T12:24:52Z</time>
      </trkpt>
      <trkpt lat="46.399314980953932" lon="8.062805039808154">
        <ele>1977</ele>
        <time>2010-09-05T12:25:05Z</time>
      </trkpt>
      <trkpt lat="46.399371977895498" lon="8.063167976215482">
        <ele>1972</ele>
        <time>2010-09-05T12:25:15Z</time>
      </trkpt>
      <trkpt lat="46.399348005652428" lon="8.063533008098602">
        <ele>1968</ele>
        <time>2010-09-05T12:25:22Z</time>
      </trkpt>
      <trkpt lat="46.399351023137569" lon="8.063897034153342">
        <ele>1965</ele>
        <time>2010-09-05T12:25:28Z</time>
      </trkpt>
      <trkpt lat="46.399299977347255" lon="8.064261982217431">
        <ele>1964</ele>
        <time>2010-09-05T12:25:35Z</time>
      </trkpt>
      <trkpt lat="46.399366026744246" lon="8.064599018543959">
        <ele>1962</ele>
        <time>2010-09-05T12:25:43Z</time>
      </trkpt>
      <trkpt lat="46.399450013414025" lon="8.06494896300137">
        <ele>1960</ele>
        <time>2010-09-05T12:25:49Z</time>
      </trkpt>
      <trkpt lat="46.399388993158937" lon="8.065275019034743">
        <ele>1958</ele>
        <time>2010-09-05T12:25:58Z</time>
      </trkpt>
      <trkpt lat="46.39926603063941" lon="8.06559001095593">
        <ele>1952</ele>
        <time>2010-09-05T12:26:09Z</time>
      </trkpt>
      <trkpt lat="46.399350017309189" lon="8.065966023132205">
        <ele>1949</ele>
        <time>2010-09-05T12:26:17Z</time>
      </trkpt>
      <trkpt lat="46.399469040334225" lon="8.066262993961573">
        <ele>1946</ele>
        <time>2010-09-05T12:26:23Z</time>
      </trkpt>
      <trkpt lat="46.399616980925202" lon="8.066636994481087">
        <ele>1942</ele>
        <time>2010-09-05T12:26:29Z</time>
      </trkpt>
      <trkpt lat="46.399466022849083" lon="8.06690001860261">
        <ele>1943</ele>
        <time>2010-09-05T12:26:35Z</time>
      </trkpt>
      <trkpt lat="46.399666015058756" lon="8.067182991653681">
        <ele>1946</ele>
        <time>2010-09-05T12:28:23Z</time>
      </trkpt>
      <trkpt lat="46.399795012548566" lon="8.06754500605166">
        <ele>1952</ele>
        <time>2010-09-05T12:30:04Z</time>
      </trkpt>
      <trkpt lat="46.399842035025358" lon="8.06786896660924">
        <ele>1957</ele>
        <time>2010-09-05T12:31:14Z</time>
      </trkpt>
      <trkpt lat="46.399854021146894" lon="8.068207008764148">
        <ele>1954</ele>
        <time>2010-09-05T12:31:23Z</time>
      </trkpt>
      <trkpt lat="46.399957034736872" lon="8.068634988740087">
        <ele>1958</ele>
        <time>2010-09-05T12:31:59Z</time>
      </trkpt>
      <trkpt lat="46.400103969499469" lon="8.069022987037897">
        <ele>1965</ele>
        <time>2010-09-05T12:33:31Z</time>
      </trkpt>
      <trkpt lat="46.400305973365903" lon="8.06950100697577">
        <ele>1973</ele>
        <time>2010-09-05T12:35:04Z</time>
      </trkpt>
      <trkpt lat="46.400354001671076" lon="8.06982496753335">
        <ele>1977</ele>
        <time>2010-09-05T12:35:39Z</time>
      </trkpt>
      <trkpt lat="46.400436982512474" lon="8.070149011909962">
        <ele>1979</ele>
        <time>2010-09-05T12:36:58Z</time>
      </trkpt>
      <trkpt lat="46.400547958910465" lon="8.070498034358025">
        <ele>1980</ele>
        <time>2010-09-05T12:37:14Z</time>
      </trkpt>
      <trkpt lat="46.400631023570895" lon="8.070809002965689">
        <ele>1982</ele>
        <time>2010-09-05T12:37:30Z</time>
      </trkpt>
      <trkpt lat="46.400651978328824" lon="8.071146961301565">
        <ele>1983</ele>
        <time>2010-09-05T12:37:45Z</time>
      </trkpt>
      <trkpt lat="46.400726996362209" lon="8.071458013728261">
        <ele>1984</ele>
        <time>2010-09-05T12:38:01Z</time>
      </trkpt>
      <trkpt lat="46.400819029659033" lon="8.071767976507545">
        <ele>1985</ele>
        <time>2010-09-05T12:38:18Z</time>
      </trkpt>
      <trkpt lat="46.40096596442163" lon="8.07203896343708">
        <ele>1984</ele>
        <time>2010-09-05T12:38:32Z</time>
      </trkpt>
      <trkpt lat="46.400932017713785" lon="8.072365019470453">
        <ele>1987</ele>
        <time>2010-09-05T12:38:49Z</time>
      </trkpt>
      <trkpt lat="46.400925982743502" lon="8.072742037475109">
        <ele>1989</ele>
        <time>2010-09-05T12:39:09Z</time>
      </trkpt>
      <trkpt lat="46.400974011048675" lon="8.073078989982605">
        <ele>1992</ele>
        <time>2010-09-05T12:39:27Z</time>
      </trkpt>
      <trkpt lat="46.400977028533816" lon="8.073508981615305">
        <ele>1993</ele>
        <time>2010-09-05T12:39:48Z</time>
      </trkpt>
      <trkpt lat="46.400926988571882" lon="8.073965040966868">
        <ele>1994</ele>
        <time>2010-09-05T12:39:54Z</time>
      </trkpt>
      <trkpt lat="46.400959007441998" lon="8.074563005939126">
        <ele>1999</ele>
        <time>2010-09-05T12:40:49Z</time>
      </trkpt>
      <trkpt lat="46.400962024927139" lon="8.07491404004395">
        <ele>2000</ele>
        <time>2010-09-05T12:41:07Z</time>
      </trkpt>
      <trkpt lat="46.400910979136825" lon="8.075265996158123">
        <ele>1998</ele>
        <time>2010-09-05T12:41:17Z</time>
      </trkpt>
      <trkpt lat="46.400734037160873" lon="8.075619963929057">
        <ele>1999</ele>
        <time>2010-09-05T12:41:25Z</time>
      </trkpt>
      <trkpt lat="46.400601016357541" lon="8.075948031619191">
        <ele>1998</ele>
        <time>2010-09-05T12:41:32Z</time>
      </trkpt>
      <trkpt lat="46.400476964190602" lon="8.076249025762081">
        <ele>1998</ele>
        <time>2010-09-05T12:41:42Z</time>
      </trkpt>
      <trkpt lat="46.400327011942863" lon="8.076538033783436">
        <ele>2000</ele>
        <time>2010-09-05T12:41:53Z</time>
      </trkpt>
      <trkpt lat="46.400130959227681" lon="8.076800974085927">
        <ele>1999</ele>
        <time>2010-09-05T12:42:05Z</time>
      </trkpt>
      <trkpt lat="46.399953011423349" lon="8.077038014307618">
        <ele>2000</ele>
        <time>2010-09-05T12:42:13Z</time>
      </trkpt>
      <trkpt lat="46.399919986724854" lon="8.077402962371707">
        <ele>2001</ele>
        <time>2010-09-05T12:42:22Z</time>
      </trkpt>
      <trkpt lat="46.399759976193309" lon="8.077640002593398">
        <ele>2001</ele>
        <time>2010-09-05T12:42:29Z</time>
      </trkpt>
      <trkpt lat="46.399655034765601" lon="8.078006040304899">
        <ele>2002</ele>
        <time>2010-09-05T12:42:37Z</time>
      </trkpt>
      <trkpt lat="46.399667020887136" lon="8.078382974490523">
        <ele>2000</ele>
        <time>2010-09-05T12:42:43Z</time>
      </trkpt>
      <trkpt lat="46.399697028100491" lon="8.078734008595347">
        <ele>1998</ele>
        <time>2010-09-05T12:42:49Z</time>
      </trkpt>
      <trkpt lat="46.399816973134875" lon="8.07914799079299">
        <ele>1998</ele>
        <time>2010-09-05T12:42:55Z</time>
      </trkpt>
      <trkpt lat="46.400000033900142" lon="8.079521991312504">
        <ele>1995</ele>
        <time>2010-09-05T12:43:01Z</time>
      </trkpt>
      <trkpt lat="46.400128025561571" lon="8.079832037910819">
        <ele>1996</ele>
        <time>2010-09-05T12:43:05Z</time>
      </trkpt>
      <trkpt lat="46.400257023051381" lon="8.080142000690103">
        <ele>1996</ele>
        <time>2010-09-05T12:43:10Z</time>
      </trkpt>
      <trkpt lat="46.400439999997616" lon="8.080516001209617">
        <ele>1992</ele>
        <time>2010-09-05T12:43:15Z</time>
      </trkpt>
      <trkpt lat="46.400515018031001" lon="8.080853959545493">
        <ele>1995</ele>
        <time>2010-09-05T12:43:22Z</time>
      </trkpt>
      <trkpt lat="46.400591041892767" lon="8.081320999190211">
        <ele>1996</ele>
        <time>2010-09-05T12:43:31Z</time>
      </trkpt>
      <trkpt lat="46.400746023282409" lon="8.081616964191198">
        <ele>1993</ele>
        <time>2010-09-05T12:43:35Z</time>
      </trkpt>
      <trkpt lat="46.400875020772219" lon="8.081965986639261">
        <ele>1994</ele>
        <time>2010-09-05T12:43:41Z</time>
      </trkpt>
      <trkpt lat="46.401003012433648" lon="8.082249965518713">
        <ele>1992</ele>
        <time>2010-09-05T12:44:24Z</time>
      </trkpt>
      <trkpt lat="46.401176014915109" lon="8.082507960498333">
        <ele>1993</ele>
        <time>2010-09-05T12:44:36Z</time>
      </trkpt>
      <trkpt lat="46.401356980204582" lon="8.082711976021528">
        <ele>1995</ele>
        <time>2010-09-05T12:44:47Z</time>
      </trkpt>
      <trkpt lat="46.401556972414255" lon="8.082904005423188">
        <ele>1998</ele>
        <time>2010-09-05T13:50:54Z</time>
      </trkpt>
      <trkpt lat="46.401739027351141" lon="8.083123024553061">
        <ele>1999</ele>
        <time>2010-09-05T13:51:11Z</time>
      </trkpt>
      <trkpt lat="46.401894008740783" lon="8.0833800137043">
        <ele>1999</ele>
        <time>2010-09-05T13:51:29Z</time>
      </trkpt>
      <trkpt lat="46.401985958218575" lon="8.083690982311964">
        <ele>2001</ele>
        <time>2010-09-05T13:51:47Z</time>
      </trkpt>
      <trkpt lat="46.40212400816381" lon="8.083988036960363">
        <ele>2002</ele>
        <time>2010-09-05T13:52:02Z</time>
      </trkpt>
      <trkpt lat="46.402322994545102" lon="8.084165984764695">
        <ele>2003</ele>
        <time>2010-09-05T13:52:16Z</time>
      </trkpt>
      <trkpt lat="46.402558023110032" lon="8.084253994747996">
        <ele>2003</ele>
        <time>2010-09-05T13:52:30Z</time>
      </trkpt>
      <trkpt lat="46.402667993679643" lon="8.084564041346312">
        <ele>2003</ele>
        <time>2010-09-05T13:52:44Z</time>
      </trkpt>
      <trkpt lat="46.402796991169453" lon="8.084874004125595">
        <ele>2006</ele>
        <time>2010-09-05T13:53:00Z</time>
      </trkpt>
      <trkpt lat="46.402943003922701" lon="8.085183966904879">
        <ele>2007</ele>
        <time>2010-09-05T13:53:16Z</time>
      </trkpt>
      <trkpt lat="46.403072001412511" lon="8.085468029603362">
        <ele>2008</ele>
        <time>2010-09-05T13:53:32Z</time>
      </trkpt>
      <trkpt lat="46.403191024437547" lon="8.085777992382646">
        <ele>2010</ele>
        <time>2010-09-05T13:53:46Z</time>
      </trkpt>
      <trkpt lat="46.403256990015507" lon="8.086102036759257">
        <ele>2009</ele>
        <time>2010-09-05T13:53:56Z</time>
      </trkpt>
      <trkpt lat="46.403312981128693" lon="8.086425997316837">
        <ele>2012</ele>
        <time>2010-09-05T13:54:08Z</time>
      </trkpt>
      <trkpt lat="46.403396967798471" lon="8.086736965924501">
        <ele>2013</ele>
        <time>2010-09-05T13:54:23Z</time>
      </trkpt>
      <trkpt lat="46.403524959459901" lon="8.087034020572901">
        <ele>2016</ele>
        <time>2010-09-05T13:54:40Z</time>
      </trkpt>
      <trkpt lat="46.403662003576756" lon="8.087317999452353">
        <ele>2016</ele>
        <time>2010-09-05T13:54:55Z</time>
      </trkpt>
      <trkpt lat="46.403782032430172" lon="8.087601978331804">
        <ele>2017</ele>
        <time>2010-09-05T13:55:11Z</time>
      </trkpt>
      <trkpt lat="46.403892002999783" lon="8.087900038808584">
        <ele>2018</ele>
        <time>2010-09-05T13:55:24Z</time>
      </trkpt>
      <trkpt lat="46.403984958305955" lon="8.08823699131608">
        <ele>2020</ele>
        <time>2010-09-05T13:55:42Z</time>
      </trkpt>
      <trkpt lat="46.404068022966385" lon="8.088561035692692">
        <ele>2021</ele>
        <time>2010-09-05T13:56:00Z</time>
      </trkpt>
      <trkpt lat="46.40414304099977" lon="8.088883990421891">
        <ele>2024</ele>
        <time>2010-09-05T13:56:17Z</time>
      </trkpt>
      <trkpt lat="46.404182016849518" lon="8.089235024526715">
        <ele>2024</ele>
        <time>2010-09-05T13:56:31Z</time>
      </trkpt>
      <trkpt lat="46.40422903932631" lon="8.089598966762424">
        <ele>2025</ele>
        <time>2010-09-05T13:56:41Z</time>
      </trkpt>
      <trkpt lat="46.404276983812451" lon="8.089948995038867">
        <ele>2025</ele>
        <time>2010-09-05T13:56:48Z</time>
      </trkpt>
      <trkpt lat="46.404352001845837" lon="8.090273039415479">
        <ele>2025</ele>
        <time>2010-09-05T13:56:53Z</time>
      </trkpt>
      <trkpt lat="46.404390977695584" lon="8.090623989701271">
        <ele>2025</ele>
        <time>2010-09-05T13:56:58Z</time>
      </trkpt>
      <trkpt lat="46.404402041807771" lon="8.090975023806095">
        <ele>2023</ele>
        <time>2010-09-05T13:57:02Z</time>
      </trkpt>
      <trkpt lat="46.404504971578717" lon="8.091389006003737">
        <ele>2023</ele>
        <time>2010-09-05T13:57:07Z</time>
      </trkpt>
      <trkpt lat="46.40466095879674" lon="8.091751020401716">
        <ele>2023</ele>
        <time>2010-09-05T13:57:12Z</time>
      </trkpt>
      <trkpt lat="46.404779981821775" lon="8.092047991231084">
        <ele>2023</ele>
        <time>2010-09-05T13:57:17Z</time>
      </trkpt>
      <trkpt lat="46.40491702593863" lon="8.092371029779315">
        <ele>2021</ele>
        <time>2010-09-05T13:57:23Z</time>
      </trkpt>
      <trkpt lat="46.40504602342844" lon="8.092668000608683">
        <ele>2019</ele>
        <time>2010-09-05T13:57:27Z</time>
      </trkpt>
      <trkpt lat="46.405192036181688" lon="8.092991039156914">
        <ele>2020</ele>
        <time>2010-09-05T13:57:31Z</time>
      </trkpt>
      <trkpt lat="46.405356992036104" lon="8.09335196390748">
        <ele>2018</ele>
        <time>2010-09-05T13:57:35Z</time>
      </trkpt>
      <trkpt lat="46.405529994517565" lon="8.0936099588871">
        <ele>2018</ele>
        <time>2010-09-05T13:57:37Z</time>
      </trkpt>
      <trkpt lat="46.405730992555618" lon="8.093893015757203">
        <ele>2017</ele>
        <time>2010-09-05T13:57:42Z</time>
      </trkpt>
      <trkpt lat="46.405930984765291" lon="8.09422804042697">
        <ele>2018</ele>
        <time>2010-09-05T13:57:46Z</time>
      </trkpt>
      <trkpt lat="46.406122008338571" lon="8.094472037628293">
        <ele>2017</ele>
        <time>2010-09-05T13:57:52Z</time>
      </trkpt>
      <trkpt lat="46.406323006376624" lon="8.094780994579196">
        <ele>2018</ele>
        <time>2010-09-05T13:57:57Z</time>
      </trkpt>
      <trkpt lat="46.406514029949903" lon="8.095011999830604">
        <ele>2020</ele>
        <time>2010-09-05T13:58:04Z</time>
      </trkpt>
      <trkpt lat="46.406713016331196" lon="8.09521702118218">
        <ele>2023</ele>
        <time>2010-09-05T13:58:14Z</time>
      </trkpt>
      <trkpt lat="46.406921977177262" lon="8.095434028655291">
        <ele>2024</ele>
        <time>2010-09-05T13:58:25Z</time>
      </trkpt>
      <trkpt lat="46.40713102184236" lon="8.095638966187835">
        <ele>2023</ele>
        <time>2010-09-05T13:58:31Z</time>
      </trkpt>
      <trkpt lat="46.407338976860046" lon="8.095818003639579">
        <ele>2022</ele>
        <time>2010-09-05T13:58:35Z</time>
      </trkpt>
      <trkpt lat="46.407520025968552" lon="8.096010033041239">
        <ele>2021</ele>
        <time>2010-09-05T13:58:39Z</time>
      </trkpt>
      <trkpt lat="46.407710965722799" lon="8.096267022192478">
        <ele>2021</ele>
        <time>2010-09-05T13:58:45Z</time>
      </trkpt>
      <trkpt lat="46.407894026488066" lon="8.096537003293634">
        <ele>2022</ele>
        <time>2010-09-05T13:58:52Z</time>
      </trkpt>
      <trkpt lat="46.40807599760592" lon="8.096859036013484">
        <ele>2023</ele>
        <time>2010-09-05T13:59:01Z</time>
      </trkpt>
      <trkpt lat="46.408222010359168" lon="8.097117030993104">
        <ele>2023</ele>
        <time>2010-09-05T13:59:09Z</time>
      </trkpt>
      <trkpt lat="46.408413033932447" lon="8.097412995994091">
        <ele>2023</ele>
        <time>2010-09-05T13:59:16Z</time>
      </trkpt>
      <trkpt lat="46.408603973686695" lon="8.097656993195415">
        <ele>2024</ele>
        <time>2010-09-05T13:59:23Z</time>
      </trkpt>
      <trkpt lat="46.408786028623581" lon="8.097889004275203">
        <ele>2024</ele>
        <time>2010-09-05T13:59:30Z</time>
      </trkpt>
      <trkpt lat="46.408994989469647" lon="8.098106011748314">
        <ele>2024</ele>
        <time>2010-09-05T13:59:38Z</time>
      </trkpt>
      <trkpt lat="46.409167991951108" lon="8.098351014778018">
        <ele>2025</ele>
        <time>2010-09-05T13:59:47Z</time>
      </trkpt>
      <trkpt lat="46.409349963068962" lon="8.098595011979342">
        <ele>2025</ele>
        <time>2010-09-05T13:59:53Z</time>
      </trkpt>
      <trkpt lat="46.409522965550423" lon="8.098852001130581">
        <ele>2025</ele>
        <time>2010-09-05T13:59:59Z</time>
      </trkpt>
      <trkpt lat="46.40975003130734" lon="8.099095998331904">
        <ele>2025</ele>
        <time>2010-09-05T14:00:05Z</time>
      </trkpt>
      <trkpt lat="46.409994028508663" lon="8.099247962236404">
        <ele>2024</ele>
        <time>2010-09-05T14:00:10Z</time>
      </trkpt>
      <trkpt lat="46.410228973254561" lon="8.099374026060104">
        <ele>2024</ele>
        <time>2010-09-05T14:00:15Z</time>
      </trkpt>
      <trkpt lat="46.410437012091279" lon="8.099514003843069">
        <ele>2024</ele>
        <time>2010-09-05T14:00:20Z</time>
      </trkpt>
      <trkpt lat="46.410635998472571" lon="8.099665967747569">
        <ele>2024</ele>
        <time>2010-09-05T14:00:26Z</time>
      </trkpt>
      <trkpt lat="46.410844037309289" lon="8.099845005199313">
        <ele>2023</ele>
        <time>2010-09-05T14:00:33Z</time>
      </trkpt>
      <trkpt lat="46.410990972071886" lon="8.100154967978597">
        <ele>2023</ele>
        <time>2010-09-05T14:00:39Z</time>
      </trkpt>
      <trkpt lat="46.411118963733315" lon="8.100465014576912">
        <ele>2023</ele>
        <time>2010-09-05T14:00:45Z</time>
      </trkpt>
      <trkpt lat="46.411238992586732" lon="8.100775983184576">
        <ele>2024</ele>
        <time>2010-09-05T14:00:53Z</time>
      </trkpt>
      <trkpt lat="46.411420963704586" lon="8.101006988435984">
        <ele>2025</ele>
        <time>2010-09-05T14:01:00Z</time>
      </trkpt>
      <trkpt lat="46.411602012813091" lon="8.101237993687391">
        <ele>2025</ele>
        <time>2010-09-05T14:01:07Z</time>
      </trkpt>
      <trkpt lat="46.411766968667507" lon="8.101521972566843">
        <ele>2026</ele>
        <time>2010-09-05T14:01:16Z</time>
      </trkpt>
      <trkpt lat="46.411957992240787" lon="8.101818021386862">
        <ele>2029</ele>
        <time>2010-09-05T14:01:24Z</time>
      </trkpt>
      <trkpt lat="46.412068968638778" lon="8.102127984166145">
        <ele>2029</ele>
        <time>2010-09-05T14:01:33Z</time>
      </trkpt>
      <trkpt lat="46.412196960300207" lon="8.102425038814545">
        <ele>2030</ele>
        <time>2010-09-05T14:01:40Z</time>
      </trkpt>
      <trkpt lat="46.412369962781668" lon="8.102683033794165">
        <ele>2030</ele>
        <time>2010-09-05T14:01:48Z</time>
      </trkpt>
      <trkpt lat="46.412613959982991" lon="8.102783029899001">
        <ele>2029</ele>
        <time>2010-09-05T14:01:57Z</time>
      </trkpt>
      <trkpt lat="46.412830967456102" lon="8.102909009903669">
        <ele>2029</ele>
        <time>2010-09-05T14:02:06Z</time>
      </trkpt>
      <trkpt lat="46.413057027384639" lon="8.103035995736718">
        <ele>2027</ele>
        <time>2010-09-05T14:02:15Z</time>
      </trkpt>
      <trkpt lat="46.413291972130537" lon="8.103265995159745">
        <ele>2023</ele>
        <time>2010-09-05T14:02:22Z</time>
      </trkpt>
      <trkpt lat="46.413474027067423" lon="8.103497000411153">
        <ele>2021</ele>
        <time>2010-09-05T14:02:28Z</time>
      </trkpt>
      <trkpt lat="46.413647029548883" lon="8.103742003440857">
        <ele>2018</ele>
        <time>2010-09-05T14:02:42Z</time>
      </trkpt>
      <trkpt lat="46.413515014573932" lon="8.104055989533663">
        <ele>2010</ele>
        <time>2010-09-05T14:03:40Z</time>
      </trkpt>
      <trkpt lat="46.413427004590631" lon="8.104382967576385">
        <ele>2001</ele>
        <time>2010-09-05T14:03:57Z</time>
      </trkpt>
      <trkpt lat="46.413608975708485" lon="8.104600980877876">
        <ele>1997</ele>
        <time>2010-09-05T14:04:04Z</time>
      </trkpt>
      <trkpt lat="46.413729004561901" lon="8.105001971125603">
        <ele>1988</ele>
        <time>2010-09-05T14:04:46Z</time>
      </trkpt>
      <trkpt lat="46.413767980411649" lon="8.105378989130259">
        <ele>1985</ele>
        <time>2010-09-05T14:04:56Z</time>
      </trkpt>
      <trkpt lat="46.413851967081428" lon="8.105780985206366">
        <ele>1980</ele>
        <time>2010-09-05T14:05:05Z</time>
      </trkpt>
      <trkpt lat="46.413854984566569" lon="8.106119027361274">
        <ele>1974</ele>
        <time>2010-09-05T14:05:13Z</time>
      </trkpt>
      <trkpt lat="46.413831012323499" lon="8.106483975425363">
        <ele>1972</ele>
        <time>2010-09-05T14:05:22Z</time>
      </trkpt>
      <trkpt lat="46.413725987076759" lon="8.106850013136864">
        <ele>1965</ele>
        <time>2010-09-05T14:05:30Z</time>
      </trkpt>
      <trkpt lat="46.413602018728852" lon="8.107151007279754">
        <ele>1962</ele>
        <time>2010-09-05T14:05:37Z</time>
      </trkpt>
      <trkpt lat="46.413477966561913" lon="8.107453007251024">
        <ele>1956</ele>
        <time>2010-09-05T14:05:44Z</time>
      </trkpt>
      <trkpt lat="46.413346035405993" lon="8.107845028862357">
        <ele>1951</ele>
        <time>2010-09-05T14:05:53Z</time>
      </trkpt>
      <trkpt lat="46.41323103569448" lon="8.108133031055331">
        <ele>1945</ele>
        <time>2010-09-05T14:05:59Z</time>
      </trkpt>
      <trkpt lat="46.413161968812346" lon="8.108473001047969">
        <ele>1941</ele>
        <time>2010-09-05T14:06:05Z</time>
      </trkpt>
      <trkpt lat="46.413137996569276" lon="8.108837027102709">
        <ele>1933</ele>
        <time>2010-09-05T14:06:12Z</time>
      </trkpt>
      <trkpt lat="46.413096003234386" lon="8.109176997095347">
        <ele>1929</ele>
        <time>2010-09-05T14:06:17Z</time>
      </trkpt>
      <trkpt lat="46.412981003522873" lon="8.109490983188152">
        <ele>1928</ele>
        <time>2010-09-05T14:06:23Z</time>
      </trkpt>
      <trkpt lat="46.413019979372621" lon="8.109841011464596">
        <ele>1922</ele>
        <time>2010-09-05T14:06:30Z</time>
      </trkpt>
      <trkpt lat="46.4130590390414" lon="8.110205037519336">
        <ele>1918</ele>
        <time>2010-09-05T14:06:37Z</time>
      </trkpt>
      <trkpt lat="46.413115030154586" lon="8.110528998076916">
        <ele>1912</ele>
        <time>2010-09-05T14:06:43Z</time>
      </trkpt>
      <trkpt lat="46.413172027096152" lon="8.11088003218174">
        <ele>1905</ele>
        <time>2010-09-05T14:06:51Z</time>
      </trkpt>
      <trkpt lat="46.413201028481126" lon="8.111216984689236">
        <ele>1899</ele>
        <time>2010-09-05T14:06:58Z</time>
      </trkpt>
      <trkpt lat="46.413347963243723" lon="8.111567012965679">
        <ele>1893</ele>
        <time>2010-09-05T14:07:05Z</time>
      </trkpt>
      <trkpt lat="46.413441002368927" lon="8.111876975744963">
        <ele>1887</ele>
        <time>2010-09-05T14:07:11Z</time>
      </trkpt>
      <trkpt lat="46.413180995732546" lon="8.112012008205056">
        <ele>1882</ele>
        <time>2010-09-05T14:08:11Z</time>
      </trkpt>
      <trkpt lat="46.412820992991328" lon="8.112044027075172">
        <ele>1875</ele>
        <time>2010-09-05T14:08:20Z</time>
      </trkpt>
      <trkpt lat="46.412549000233412" lon="8.111774967983365">
        <ele>1873</ele>
        <time>2010-09-05T14:08:26Z</time>
      </trkpt>
      <trkpt lat="46.412349008023739" lon="8.11150498688221">
        <ele>1871</ele>
        <time>2010-09-05T14:08:31Z</time>
      </trkpt>
      <trkpt lat="46.412273989990354" lon="8.111128974705935">
        <ele>1868</ele>
        <time>2010-09-05T14:08:42Z</time>
      </trkpt>
      <trkpt lat="46.412190003320575" lon="8.110805014148355">
        <ele>1864</ele>
        <time>2010-09-05T14:08:51Z</time>
      </trkpt>
      <trkpt lat="46.412038961425424" lon="8.111067032441497">
        <ele>1853</ele>
        <time>2010-09-05T14:09:08Z</time>
      </trkpt>
      <trkpt lat="46.411883980035782" lon="8.110783975571394">
        <ele>1846</ele>
        <time>2010-09-05T14:09:24Z</time>
      </trkpt>
      <trkpt lat="46.411720030009747" lon="8.110551964491606">
        <ele>1842</ele>
        <time>2010-09-05T14:09:29Z</time>
      </trkpt>
      <trkpt lat="46.411530012264848" lon="8.110347026959062">
        <ele>1838</ele>
        <time>2010-09-05T14:09:36Z</time>
      </trkpt>
      <trkpt lat="46.411375030875206" lon="8.110089031979442">
        <ele>1832</ele>
        <time>2010-09-05T14:09:44Z</time>
      </trkpt>
      <trkpt lat="46.411236980929971" lon="8.109778985381126">
        <ele>1826</ele>
        <time>2010-09-05T14:09:53Z</time>
      </trkpt>
      <trkpt lat="46.411244021728635" lon="8.10944102704525">
        <ele>1821</ele>
        <time>2010-09-05T14:10:02Z</time>
      </trkpt>
      <trkpt lat="46.411097003147006" lon="8.109170040115714">
        <ele>1816</ele>
        <time>2010-09-05T14:10:13Z</time>
      </trkpt>
      <trkpt lat="46.410863986238837" lon="8.109252015128732">
        <ele>1819</ele>
        <time>2010-09-05T14:10:30Z</time>
      </trkpt>
      <trkpt lat="46.410641027614474" lon="8.109425017610192">
        <ele>1817</ele>
        <time>2010-09-05T14:10:37Z</time>
      </trkpt>
      <trkpt lat="46.410389989614487" lon="8.109636995941401">
        <ele>1815</ele>
        <time>2010-09-05T14:10:45Z</time>
      </trkpt>
      <trkpt lat="46.410212963819504" lon="8.109938995912671">
        <ele>1810</ele>
        <time>2010-09-05T14:10:54Z</time>
      </trkpt>
      <trkpt lat="46.410062005743384" lon="8.110202020034194">
        <ele>1805</ele>
        <time>2010-09-05T14:11:00Z</time>
      </trkpt>
      <trkpt lat="46.409973995760083" lon="8.110516006127">
        <ele>1802</ele>
        <time>2010-09-05T14:11:10Z</time>
      </trkpt>
      <trkpt lat="46.4099679607898" lon="8.110853964462876">
        <ele>1794</ele>
        <time>2010-09-05T14:11:20Z</time>
      </trkpt>
      <trkpt lat="46.40992596745491" lon="8.111206004396081">
        <ele>1788</ele>
        <time>2010-09-05T14:11:29Z</time>
      </trkpt>
      <trkpt lat="46.409847009927034" lon="8.111584028229117">
        <ele>1776</ele>
        <time>2010-09-05T14:11:45Z</time>
      </trkpt>
      <trkpt lat="46.4099230337888" lon="8.111974038183689">
        <ele>1763</ele>
        <time>2010-09-05T14:12:55Z</time>
      </trkpt>
      <trkpt lat="46.409970978274941" lon="8.112362958490849">
        <ele>1751</ele>
        <time>2010-09-05T14:13:58Z</time>
      </trkpt>
      <trkpt lat="46.410149009898305" lon="8.112138994038105">
        <ele>1747</ele>
        <time>2010-09-05T14:14:08Z</time>
      </trkpt>
      <trkpt lat="46.410250011831522" lon="8.112489022314549">
        <ele>1745</ele>
        <time>2010-09-05T14:14:24Z</time>
      </trkpt>
      <trkpt lat="46.410360988229513" lon="8.112877020612359">
        <ele>1744</ele>
        <time>2010-09-05T14:14:35Z</time>
      </trkpt>
      <trkpt lat="46.410471964627504" lon="8.113240040838718">
        <ele>1742</ele>
        <time>2010-09-05T14:14:45Z</time>
      </trkpt>
      <trkpt lat="46.410447992384434" lon="8.113590991124511">
        <ele>1739</ele>
        <time>2010-09-05T14:14:50Z</time>
      </trkpt>
      <trkpt lat="46.410477999597788" lon="8.113981001079083">
        <ele>1737</ele>
        <time>2010-09-05T14:14:56Z</time>
      </trkpt>
      <trkpt lat="46.41046199016273" lon="8.11431996524334">
        <ele>1738</ele>
        <time>2010-09-05T14:15:08Z</time>
      </trkpt>
      <trkpt lat="46.410538014024496" lon="8.114774012938142">
        <ele>1738</ele>
        <time>2010-09-05T14:17:42Z</time>
      </trkpt>
      <trkpt lat="46.410640021786094" lon="8.115096967667341">
        <ele>1736</ele>
        <time>2010-09-05T14:17:51Z</time>
      </trkpt>
      <trkpt lat="46.410768013447523" lon="8.115408020094037">
        <ele>1735</ele>
        <time>2010-09-05T14:17:57Z</time>
      </trkpt>
      <trkpt lat="46.410932969301939" lon="8.115795012563467">
        <ele>1732</ele>
        <time>2010-09-05T14:18:03Z</time>
      </trkpt>
      <trkpt lat="46.411052998155355" lon="8.116158032789826">
        <ele>1731</ele>
        <time>2010-09-05T14:18:06Z</time>
      </trkpt>
      <trkpt lat="46.411180989816785" lon="8.116442011669278">
        <ele>1729</ele>
        <time>2010-09-05T14:18:12Z</time>
      </trkpt>
      <trkpt lat="46.410963982343674" lon="8.116302033886313">
        <ele>1726</ele>
        <time>2010-09-05T14:18:27Z</time>
      </trkpt>
      <trkpt lat="46.410790979862213" lon="8.116031968966126">
        <ele>1723</ele>
        <time>2010-09-05T14:18:34Z</time>
      </trkpt>
      <trkpt lat="46.410627029836178" lon="8.11580004170537">
        <ele>1721</ele>
        <time>2010-09-05T14:18:39Z</time>
      </trkpt>
      <trkpt lat="46.410620994865894" lon="8.116190973669291">
        <ele>1714</ele>
        <time>2010-09-05T14:18:51Z</time>
      </trkpt>
      <trkpt lat="46.410605991259217" lon="8.116542007774115">
        <ele>1709</ele>
        <time>2010-09-05T14:19:04Z</time>
      </trkpt>
      <trkpt lat="46.410412034019828" lon="8.117079036310315">
        <ele>1693</ele>
        <time>2010-09-05T14:20:21Z</time>
      </trkpt>
      <trkpt lat="46.410168958827853" lon="8.117148019373417">
        <ele>1681</ele>
        <time>2010-09-05T14:20:45Z</time>
      </trkpt>
      <trkpt lat="46.409909036010504" lon="8.117229994386435">
        <ele>1671</ele>
        <time>2010-09-05T14:21:29Z</time>
      </trkpt>
      <trkpt lat="46.409956980496645" lon="8.117581028491259">
        <ele>1664</ele>
        <time>2010-09-05T14:21:40Z</time>
      </trkpt>
      <trkpt lat="46.410004002973437" lon="8.117917980998755">
        <ele>1657</ele>
        <time>2010-09-05T14:21:57Z</time>
      </trkpt>
      <trkpt lat="46.410079021006823" lon="8.118281001225114">
        <ele>1647</ele>
        <time>2010-09-05T14:22:35Z</time>
      </trkpt>
      <trkpt lat="46.41011799685657" lon="8.118684003129602">
        <ele>1639</ele>
        <time>2010-09-05T14:22:49Z</time>
      </trkpt>
      <trkpt lat="46.410123025998473" lon="8.119334019720554">
        <ele>1618</ele>
        <time>2010-09-05T14:24:29Z</time>
      </trkpt>
      <trkpt lat="46.410143980756402" lon="8.119750013574958">
        <ele>1611</ele>
        <time>2010-09-05T14:25:59Z</time>
      </trkpt>
      <trkpt lat="46.410264009609818" lon="8.120126025751233">
        <ele>1608</ele>
        <time>2010-09-05T14:26:10Z</time>
      </trkpt>
      <trkpt lat="46.410356964915991" lon="8.120448980480433">
        <ele>1606</ele>
        <time>2010-09-05T14:26:18Z</time>
      </trkpt>
      <trkpt lat="46.410457966849208" lon="8.120760032907128">
        <ele>1602</ele>
        <time>2010-09-05T14:26:29Z</time>
      </trkpt>
      <trkpt lat="46.410505995154381" lon="8.121110983192921">
        <ele>1596</ele>
        <time>2010-09-05T14:28:29Z</time>
      </trkpt>
      <trkpt lat="46.410281024873257" lon="8.121165968477726">
        <ele>1586</ele>
        <time>2010-09-05T14:28:47Z</time>
      </trkpt>
      <trkpt lat="46.409940971061587" lon="8.121419018134475">
        <ele>1567</ele>
        <time>2010-09-05T14:30:19Z</time>
      </trkpt>
      <trkpt lat="46.409962009638548" lon="8.121835011988878">
        <ele>1558</ele>
        <time>2010-09-05T14:31:05Z</time>
      </trkpt>
      <trkpt lat="46.410010037943721" lon="8.122158972546458">
        <ele>1548</ele>
        <time>2010-09-05T14:31:57Z</time>
      </trkpt>
      <trkpt lat="46.409877017140388" lon="8.122434988617897">
        <ele>1536</ele>
        <time>2010-09-05T14:32:31Z</time>
      </trkpt>
      <trkpt lat="46.409915992990136" lon="8.122773030772805">
        <ele>1527</ele>
        <time>2010-09-05T14:32:53Z</time>
      </trkpt>
      <trkpt lat="46.40960100106895" lon="8.122790968045592">
        <ele>1517</ele>
        <time>2010-09-05T14:33:58Z</time>
      </trkpt>
      <trkpt lat="46.409349041059613" lon="8.122833967208862">
        <ele>1507</ele>
        <time>2010-09-05T14:34:45Z</time>
      </trkpt>
      <trkpt lat="46.40949597582221" lon="8.123131021857262">
        <ele>1501</ele>
        <time>2010-09-05T14:35:08Z</time>
      </trkpt>
      <trkpt lat="46.409335965290666" lon="8.123483983799815">
        <ele>1481</ele>
        <time>2010-09-05T14:36:35Z</time>
      </trkpt>
      <trkpt lat="46.409455994144082" lon="8.12385999597609">
        <ele>1471</ele>
        <time>2010-09-05T14:37:45Z</time>
      </trkpt>
      <trkpt lat="46.409531012177467" lon="8.12422301620245">
        <ele>1465</ele>
        <time>2010-09-05T14:38:44Z</time>
      </trkpt>
      <trkpt lat="46.409225994721055" lon="8.124344972893596">
        <ele>1445</ele>
        <time>2010-09-05T14:40:25Z</time>
      </trkpt>
      <trkpt lat="46.408918965607882" lon="8.124298034235835">
        <ele>1435</ele>
        <time>2010-09-05T14:42:11Z</time>
      </trkpt>
      <trkpt lat="46.408966993913054" lon="8.124687038362026">
        <ele>1422</ele>
        <time>2010-09-05T14:43:41Z</time>
      </trkpt>
      <trkpt lat="46.409167991951108" lon="8.124983003363013">
        <ele>1413</ele>
        <time>2010-09-05T14:44:38Z</time>
      </trkpt>
      <trkpt lat="46.408954001963139" lon="8.125220965594053">
        <ele>1401</ele>
        <time>2010-09-05T14:46:12Z</time>
      </trkpt>
      <trkpt lat="46.409028014168143" lon="8.125570993870497">
        <ele>1388</ele>
        <time>2010-09-05T14:48:07Z</time>
      </trkpt>
      <trkpt lat="46.409130021929741" lon="8.125908030197024">
        <ele>1374</ele>
        <time>2010-09-05T14:49:58Z</time>
      </trkpt>
      <trkpt lat="46.409347029402852" lon="8.126048007979989">
        <ele>1372</ele>
        <time>2010-09-05T14:50:40Z</time>
      </trkpt>
      <trkpt lat="46.409618016332388" lon="8.126238025724888">
        <ele>1369</ele>
        <time>2010-09-05T14:51:08Z</time>
      </trkpt>
      <trkpt lat="46.409818008542061" lon="8.126469030976296">
        <ele>1366</ele>
        <time>2010-09-05T14:51:19Z</time>
      </trkpt>
      <trkpt lat="46.410026969388127" lon="8.126660976558924">
        <ele>1364</ele>
        <time>2010-09-05T14:51:34Z</time>
      </trkpt>
      <trkpt lat="46.41026996076107" lon="8.126696012914181">
        <ele>1361</ele>
        <time>2010-09-05T14:51:42Z</time>
      </trkpt>
      <trkpt lat="46.410531979054213" lon="8.126809000968933">
        <ele>1360</ele>
        <time>2010-09-05T14:51:48Z</time>
      </trkpt>
      <trkpt lat="46.410766001790762" lon="8.12690899707377">
        <ele>1355</ele>
        <time>2010-09-05T14:51:55Z</time>
      </trkpt>
      <trkpt lat="46.410920983180404" lon="8.127179984003305">
        <ele>1354</ele>
        <time>2010-09-05T14:52:03Z</time>
      </trkpt>
      <trkpt lat="46.410887958481908" lon="8.127545015886426">
        <ele>1351</ele>
        <time>2010-09-05T14:52:08Z</time>
      </trkpt>
      <trkpt lat="46.410900028422475" lon="8.127882974222302">
        <ele>1348</ele>
        <time>2010-09-05T14:52:15Z</time>
      </trkpt>
      <trkpt lat="46.411171015352011" lon="8.128061005845666">
        <ele>1346</ele>
        <time>2010-09-05T14:52:24Z</time>
      </trkpt>
      <trkpt lat="46.411335971206427" lon="8.128423020243645">
        <ele>1343</ele>
        <time>2010-09-05T14:52:30Z</time>
      </trkpt>
      <trkpt lat="46.411481983959675" lon="8.128771958872676">
        <ele>1341</ele>
        <time>2010-09-05T14:52:36Z</time>
      </trkpt>
      <trkpt lat="46.411726986989379" lon="8.129028026014566">
        <ele>1337</ele>
        <time>2010-09-05T14:52:40Z</time>
      </trkpt>
      <trkpt lat="46.411909963935614" lon="8.129310999065638">
        <ele>1335</ele>
        <time>2010-09-05T14:52:45Z</time>
      </trkpt>
      <trkpt lat="46.411957992240787" lon="8.129714000970125">
        <ele>1333</ele>
        <time>2010-09-05T14:52:50Z</time>
      </trkpt>
      <trkpt lat="46.412032004445791" lon="8.130077021196485">
        <ele>1327</ele>
        <time>2010-09-05T14:52:55Z</time>
      </trkpt>
      <trkpt lat="46.412259992212057" lon="8.130438029766083">
        <ele>1325</ele>
        <time>2010-09-05T14:53:00Z</time>
      </trkpt>
      <trkpt lat="46.412478005513549" lon="8.130641961470246">
        <ele>1322</ele>
        <time>2010-09-05T14:53:04Z</time>
      </trkpt>
      <trkpt lat="46.412768019363284" lon="8.130988972261548">
        <ele>1320</ele>
        <time>2010-09-05T14:53:07Z</time>
      </trkpt>
      <trkpt lat="46.412977986037731" lon="8.131285021081567">
        <ele>1318</ele>
        <time>2010-09-05T14:53:11Z</time>
      </trkpt>
      <trkpt lat="46.413142019882798" lon="8.131620967760682">
        <ele>1314</ele>
        <time>2010-09-05T14:53:14Z</time>
      </trkpt>
      <trkpt lat="46.413343017920852" lon="8.131955992430449">
        <ele>1311</ele>
        <time>2010-09-05T14:53:17Z</time>
      </trkpt>
      <trkpt lat="46.413569999858737" lon="8.132264027372003">
        <ele>1309</ele>
        <time>2010-09-05T14:53:19Z</time>
      </trkpt>
      <trkpt lat="46.41383402980864" lon="8.132664011791349">
        <ele>1305</ele>
        <time>2010-09-05T14:53:23Z</time>
      </trkpt>
      <trkpt lat="46.413979958742857" lon="8.132960982620716">
        <ele>1301</ele>
        <time>2010-09-05T14:53:27Z</time>
      </trkpt>
      <trkpt lat="46.413893960416317" lon="8.133456017822027">
        <ele>1298</ele>
        <time>2010-09-05T14:53:31Z</time>
      </trkpt>
      <trkpt lat="46.413623979315162" lon="8.133474038913846">
        <ele>1295</ele>
        <time>2010-09-05T14:53:36Z</time>
      </trkpt>
      <trkpt lat="46.413379982113838" lon="8.133296007290483">
        <ele>1294</ele>
        <time>2010-09-05T14:53:39Z</time>
      </trkpt>
      <trkpt lat="46.41308200545609" lon="8.133130967617035">
        <ele>1290</ele>
        <time>2010-09-05T14:53:42Z</time>
      </trkpt>
      <trkpt lat="46.412818981334567" lon="8.132966011762619">
        <ele>1287</ele>
        <time>2010-09-05T14:53:45Z</time>
      </trkpt>
      <trkpt lat="46.412546988576651" lon="8.132723020389676">
        <ele>1286</ele>
        <time>2010-09-05T14:53:48Z</time>
      </trkpt>
      <trkpt lat="46.412356970831752" lon="8.1325179990381">
        <ele>1284</ele>
        <time>2010-09-05T14:53:52Z</time>
      </trkpt>
      <trkpt lat="46.412130994722247" lon="8.132299985736609">
        <ele>1282</ele>
        <time>2010-09-05T14:53:55Z</time>
      </trkpt>
      <trkpt lat="46.411812985315919" lon="8.131993040442467">
        <ele>1281</ele>
        <time>2010-09-05T14:53:58Z</time>
      </trkpt>
      <trkpt lat="46.411595977842808" lon="8.131776032969356">
        <ele>1280</ele>
        <time>2010-09-05T14:54:02Z</time>
      </trkpt>
      <trkpt lat="46.411322979256511" lon="8.131480989977717">
        <ele>1280</ele>
        <time>2010-09-05T14:54:07Z</time>
      </trkpt>
      <trkpt lat="46.411231029778719" lon="8.131157029420137">
        <ele>1279</ele>
        <time>2010-09-05T14:54:10Z</time>
      </trkpt>
      <trkpt lat="46.41097697429359" lon="8.130952008068562">
        <ele>1277</ele>
        <time>2010-09-05T14:54:16Z</time>
      </trkpt>
      <trkpt lat="46.410627029836178" lon="8.131023002788425">
        <ele>1275</ele>
        <time>2010-09-05T14:54:20Z</time>
      </trkpt>
      <trkpt lat="46.410328969359398" lon="8.1309499964118">
        <ele>1273</ele>
        <time>2010-09-05T14:54:25Z</time>
      </trkpt>
      <trkpt lat="46.4100940246135" lon="8.13075796701014">
        <ele>1271</ele>
        <time>2010-09-05T14:54:28Z</time>
      </trkpt>
      <trkpt lat="46.409803004935384" lon="8.130425037816167">
        <ele>1268</ele>
        <time>2010-09-05T14:54:32Z</time>
      </trkpt>
      <trkpt lat="46.409395979717374" lon="8.130157990381122">
        <ele>1266</ele>
        <time>2010-09-05T14:54:36Z</time>
      </trkpt>
      <trkpt lat="46.409116024151444" lon="8.129927990958095">
        <ele>1264</ele>
        <time>2010-09-05T14:54:39Z</time>
      </trkpt>
      <trkpt lat="46.40902197919786" lon="8.129538986831904">
        <ele>1264</ele>
        <time>2010-09-05T14:54:43Z</time>
      </trkpt>
      <trkpt lat="46.409002030268312" lon="8.129201028496027">
        <ele>1263</ele>
        <time>2010-09-05T14:54:47Z</time>
      </trkpt>
      <trkpt lat="46.408669017255306" lon="8.129142019897699">
        <ele>1261</ele>
        <time>2010-09-05T14:54:53Z</time>
      </trkpt>
      <trkpt lat="46.408460978418589" lon="8.129001958295703">
        <ele>1259</ele>
        <time>2010-09-05T14:54:56Z</time>
      </trkpt>
      <trkpt lat="46.408135006204247" lon="8.128812024369836">
        <ele>1257</ele>
        <time>2010-09-05T14:54:59Z</time>
      </trkpt>
      <trkpt lat="46.407855972647667" lon="8.128738012164831">
        <ele>1255</ele>
        <time>2010-09-05T14:55:02Z</time>
      </trkpt>
      <trkpt lat="46.40758397988975" lon="8.128599040210247">
        <ele>1250</ele>
        <time>2010-09-05T14:55:07Z</time>
      </trkpt>
      <trkpt lat="46.407695962116122" lon="8.129091979935765">
        <ele>1247</ele>
        <time>2010-09-05T14:55:14Z</time>
      </trkpt>
      <trkpt lat="46.407913975417614" lon="8.129388028755784">
        <ele>1245</ele>
        <time>2010-09-05T14:55:17Z</time>
      </trkpt>
      <trkpt lat="46.407617004588246" lon="8.129341006278992">
        <ele>1242</ele>
        <time>2010-09-05T14:55:24Z</time>
      </trkpt>
      <trkpt lat="46.407355992123485" lon="8.129266994073987">
        <ele>1241</ele>
        <time>2010-09-05T14:55:28Z</time>
      </trkpt>
      <trkpt lat="46.407041000202298" lon="8.129310999065638">
        <ele>1238</ele>
        <time>2010-09-05T14:55:31Z</time>
      </trkpt>
      <trkpt lat="46.406752998009324" lon="8.129341006278992">
        <ele>1234</ele>
        <time>2010-09-05T14:55:34Z</time>
      </trkpt>
      <trkpt lat="46.406455021351576" lon="8.129216032102704">
        <ele>1232</ele>
        <time>2010-09-05T14:55:37Z</time>
      </trkpt>
      <trkpt lat="46.406166013330221" lon="8.129063984379172">
        <ele>1229</ele>
        <time>2010-09-05T14:55:40Z</time>
      </trkpt>
      <trkpt lat="46.405858984217048" lon="8.128900034353137">
        <ele>1227</ele>
        <time>2010-09-05T14:55:43Z</time>
      </trkpt>
      <trkpt lat="46.405606018379331" lon="8.128734994679689">
        <ele>1223</ele>
        <time>2010-09-05T14:55:46Z</time>
      </trkpt>
      <trkpt lat="46.405323967337608" lon="8.12841396778822">
        <ele>1220</ele>
        <time>2010-09-05T14:55:50Z</time>
      </trkpt>
      <trkpt lat="46.405026996508241" lon="8.128367029130459">
        <ele>1217</ele>
        <time>2010-09-05T14:55:52Z</time>
      </trkpt>
      <trkpt lat="46.404757015407085" lon="8.128397958353162">
        <ele>1214</ele>
        <time>2010-09-05T14:55:56Z</time>
      </trkpt>
      <trkpt lat="46.404476976022124" lon="8.128350013867021">
        <ele>1212</ele>
        <time>2010-09-05T14:55:59Z</time>
      </trkpt>
      <trkpt lat="46.404623994603753" lon="8.128646984696388">
        <ele>1207</ele>
        <time>2010-09-05T14:56:08Z</time>
      </trkpt>
      <trkpt lat="46.40487696044147" lon="8.128825016319752">
        <ele>1204</ele>
        <time>2010-09-05T14:56:12Z</time>
      </trkpt>
      <trkpt lat="46.405138978734612" lon="8.128963988274336">
        <ele>1201</ele>
        <time>2010-09-05T14:56:15Z</time>
      </trkpt>
      <trkpt lat="46.405393034219742" lon="8.129168003797531">
        <ele>1198</ele>
        <time>2010-09-05T14:56:18Z</time>
      </trkpt>
      <trkpt lat="46.405601995065808" lon="8.129412000998855">
        <ele>1194</ele>
        <time>2010-09-05T14:56:23Z</time>
      </trkpt>
      <trkpt lat="46.405711965635419" lon="8.129708971828222">
        <ele>1192</ele>
        <time>2010-09-05T14:56:53Z</time>
      </trkpt>
      <trkpt lat="46.405938025563955" lon="8.129822965711355">
        <ele>1191</ele>
        <time>2010-09-05T14:57:44Z</time>
      </trkpt>
      <trkpt lat="46.406181016936898" lon="8.129883985966444">
        <ele>1189</ele>
        <time>2010-09-05T14:57:49Z</time>
      </trkpt>
      <trkpt lat="46.406388971954584" lon="8.130050031468272">
        <ele>1187</ele>
        <time>2010-09-05T14:57:54Z</time>
      </trkpt>
      <trkpt lat="46.406616037711501" lon="8.130227979272604">
        <ele>1184</ele>
        <time>2010-09-05T14:57:57Z</time>
      </trkpt>
      <trkpt lat="46.406806977465749" lon="8.130497960373759">
        <ele>1183</ele>
        <time>2010-09-05T14:58:01Z</time>
      </trkpt>
      <trkpt lat="46.406961958855391" lon="8.130756039172411">
        <ele>1180</ele>
        <time>2010-09-05T14:58:04Z</time>
      </trkpt>
      <trkpt lat="46.406745035201311" lon="8.130602985620499">
        <ele>1175</ele>
        <time>2010-09-05T14:58:21Z</time>
      </trkpt>
      <trkpt lat="46.4065280277282" lon="8.13047700561583">
        <ele>1173</ele>
        <time>2010-09-05T14:58:25Z</time>
      </trkpt>
      <trkpt lat="46.40622996725142" lon="8.130351025611162">
        <ele>1171</ele>
        <time>2010-09-05T14:58:29Z</time>
      </trkpt>
      <trkpt lat="46.405886979773641" lon="8.130239965394139">
        <ele>1169</ele>
        <time>2010-09-05T14:58:33Z</time>
      </trkpt>
      <trkpt lat="46.405589003115892" lon="8.130152961239219">
        <ele>1168</ele>
        <time>2010-09-05T14:58:36Z</time>
      </trkpt>
      <trkpt lat="46.405281974002719" lon="8.130040979012847">
        <ele>1167</ele>
        <time>2010-09-05T14:58:39Z</time>
      </trkpt>
      <trkpt lat="46.40500302426517" lon="8.129954980686307">
        <ele>1166</ele>
        <time>2010-09-05T14:58:42Z</time>
      </trkpt>
      <trkpt lat="46.404749974608421" lon="8.129893960431218">
        <ele>1164</ele>
        <time>2010-09-05T14:58:45Z</time>
      </trkpt>
      <trkpt lat="46.404471024870872" lon="8.129780972376466">
        <ele>1162</ele>
        <time>2010-09-05T14:58:49Z</time>
      </trkpt>
      <trkpt lat="46.404190985485911" lon="8.129654992371798">
        <ele>1160</ele>
        <time>2010-09-05T14:58:52Z</time>
      </trkpt>
      <trkpt lat="46.403919998556376" lon="8.129606964066625">
        <ele>1158</ele>
        <time>2010-09-05T14:58:55Z</time>
      </trkpt>
      <trkpt lat="46.403611963614821" lon="8.129377970471978">
        <ele>1154</ele>
        <time>2010-09-05T14:58:59Z</time>
      </trkpt>
      <trkpt lat="46.403361009433866" lon="8.129473021253943">
        <ele>1151</ele>
        <time>2010-09-05T14:59:06Z</time>
      </trkpt>
      <trkpt lat="46.403228994458914" lon="8.129801005125046">
        <ele>1149</ele>
        <time>2010-09-05T14:59:11Z</time>
      </trkpt>
      <trkpt lat="46.402967981994152" lon="8.129856996238232">
        <ele>1148</ele>
        <time>2010-09-05T14:59:14Z</time>
      </trkpt>
      <trkpt lat="46.402732031419873" lon="8.129548039287329">
        <ele>1146</ele>
        <time>2010-09-05T14:59:20Z</time>
      </trkpt>
      <trkpt lat="46.402460960671306" lon="8.129435973241925">
        <ele>1141</ele>
        <time>2010-09-05T14:59:25Z</time>
      </trkpt>
      <trkpt lat="46.402199026197195" lon="8.129361961036921">
        <ele>1138</ele>
        <time>2010-09-05T14:59:30Z</time>
      </trkpt>
      <trkpt lat="46.401919992640615" lon="8.129352992400527">
        <ele>1137</ele>
        <time>2010-09-05T14:59:34Z</time>
      </trkpt>
      <trkpt lat="46.401668032631278" lon="8.129357015714049">
        <ele>1136</ele>
        <time>2010-09-05T14:59:37Z</time>
      </trkpt>
      <trkpt lat="46.401362009346485" lon="8.129271017387509">
        <ele>1134</ele>
        <time>2010-09-05T14:59:41Z</time>
      </trkpt>
      <trkpt lat="46.401118012145162" lon="8.129184013232589">
        <ele>1134</ele>
        <time>2010-09-05T14:59:44Z</time>
      </trkpt>
      <trkpt lat="46.400875020772219" lon="8.129148976877332">
        <ele>1132</ele>
        <time>2010-09-05T14:59:47Z</time>
      </trkpt>
      <trkpt lat="46.400640998035669" lon="8.129256013780832">
        <ele>1130</ele>
        <time>2010-09-05T14:59:51Z</time>
      </trkpt>
      <trkpt lat="46.400734037160873" lon="8.129645017907023">
        <ele>1128</ele>
        <time>2010-09-05T14:59:56Z</time>
      </trkpt>
      <trkpt lat="46.400547036901116" lon="8.129921033978462">
        <ele>1125</ele>
        <time>2010-09-05T15:00:01Z</time>
      </trkpt>
      <trkpt lat="46.400232966989279" lon="8.129978030920029">
        <ele>1120</ele>
        <time>2010-09-05T15:00:04Z</time>
      </trkpt>
      <trkpt lat="46.400450980290771" lon="8.130299979820848">
        <ele>1115</ele>
        <time>2010-09-05T15:00:36Z</time>
      </trkpt>
      <trkpt lat="46.400668993592262" lon="8.130569960922003">
        <ele>1113</ele>
        <time>2010-09-05T15:00:40Z</time>
      </trkpt>
      <trkpt lat="46.400680979713798" lon="8.130908003076911">
        <ele>1110</ele>
        <time>2010-09-05T15:00:42Z</time>
      </trkpt>
      <trkpt lat="46.400755997747183" lon="8.131284015253186">
        <ele>1108</ele>
        <time>2010-09-05T15:00:45Z</time>
      </trkpt>
      <trkpt lat="46.400893041864038" lon="8.131606969982386">
        <ele>1107</ele>
        <time>2010-09-05T15:00:49Z</time>
      </trkpt>
      <trkpt lat="46.401166040450335" lon="8.131889021024108">
        <ele>1105</ele>
        <time>2010-09-05T15:00:54Z</time>
      </trkpt>
      <trkpt lat="46.401338959112763" lon="8.132159002125263">
        <ele>1101</ele>
        <time>2010-09-05T15:00:59Z</time>
      </trkpt>
      <trkpt lat="46.401617992669344" lon="8.132180962711573">
        <ele>1097</ele>
        <time>2010-09-05T15:01:03Z</time>
      </trkpt>
      <trkpt lat="46.401997022330761" lon="8.132305014878511">
        <ele>1092</ele>
        <time>2010-09-05T15:01:11Z</time>
      </trkpt>
      <trkpt lat="46.402143035084009" lon="8.132588993757963">
        <ele>1089</ele>
        <time>2010-09-05T15:01:22Z</time>
      </trkpt>
      <trkpt lat="46.402288964018226" lon="8.132846988737583">
        <ele>1088</ele>
        <time>2010-09-05T15:01:27Z</time>
      </trkpt>
      <trkpt lat="46.402434976771474" lon="8.133196011185646">
        <ele>1086</ele>
        <time>2010-09-05T15:01:32Z</time>
      </trkpt>
      <trkpt lat="46.402644021436572" lon="8.133360967040062">
        <ele>1086</ele>
        <time>2010-09-05T15:01:35Z</time>
      </trkpt>
      <trkpt lat="46.402895981445909" lon="8.133408995345235">
        <ele>1087</ele>
        <time>2010-09-05T15:01:41Z</time>
      </trkpt>
      <trkpt lat="46.403193036094308" lon="8.133431039750576">
        <ele>1086</ele>
        <time>2010-09-05T15:01:49Z</time>
      </trkpt>
      <trkpt lat="46.40349998138845" lon="8.133581997826695">
        <ele>1085</ele>
        <time>2010-09-05T15:01:55Z</time>
      </trkpt>
      <trkpt lat="46.403512973338366" lon="8.134023975580931">
        <ele>1085</ele>
        <time>2010-09-05T15:02:01Z</time>
      </trkpt>
      <trkpt lat="46.403407026082277" lon="8.134351037442684">
        <ele>1086</ele>
        <time>2010-09-05T15:02:08Z</time>
      </trkpt>
      <trkpt lat="46.40332899056375" lon="8.134703999385238">
        <ele>1086</ele>
        <time>2010-09-05T15:02:18Z</time>
      </trkpt>
      <trkpt lat="46.403448013588786" lon="8.134987978264689">
        <ele>1088</ele>
        <time>2010-09-05T15:02:31Z</time>
      </trkpt>
      <trkpt lat="46.40362998470664" lon="8.135205991566181">
        <ele>1090</ele>
        <time>2010-09-05T15:02:44Z</time>
      </trkpt>
      <trkpt lat="46.403883034363389" lon="8.135344963520765">
        <ele>1090</ele>
        <time>2010-09-05T15:02:56Z</time>
      </trkpt>
      <trkpt lat="46.40409903600812" lon="8.13545904122293">
        <ele>1092</ele>
        <time>2010-09-05T15:03:08Z</time>
      </trkpt>
      <trkpt lat="46.404281007125974" lon="8.135716030374169">
        <ele>1094</ele>
        <time>2010-09-05T15:03:22Z</time>
      </trkpt>
      <trkpt lat="46.40444596298039" lon="8.136000009253621">
        <ele>1094</ele>
        <time>2010-09-05T15:03:31Z</time>
      </trkpt>
      <trkpt lat="46.404671017080545" lon="8.136112997308374">
        <ele>1092</ele>
        <time>2010-09-05T15:03:36Z</time>
      </trkpt>
      <trkpt lat="46.404933035373688" lon="8.136148033663631">
        <ele>1089</ele>
        <time>2010-09-05T15:03:42Z</time>
      </trkpt>
      <trkpt lat="46.405183989554644" lon="8.136131018400192">
        <ele>1088</ele>
        <time>2010-09-05T15:03:46Z</time>
      </trkpt>
      <trkpt lat="46.405383981764317" lon="8.136309972032905">
        <ele>1086</ele>
        <time>2010-09-05T15:03:54Z</time>
      </trkpt>
    </trkseg>
  </trk>

</gpx>
